<?xml version="1.0" encoding="UTF-8" standalone="no" ?>
<gpx xmlns="http://www.topografix.com/GPX/1/1" xmlns:xsi="http://www.w3.org/2001/XMLSchema-instance" xsi:schemaLocation="http://www.topografix.com/GPX/1/1 http://www.topografix.com/GPX/1/1/gpx.xsd" version="1.1" creator="VisuGPX - https://www.visugpx.com">
  <metadata>
    <name>savenay-cordemais-lavau</name>
    <desc><![CDATA[Circuit partant partant de Savenay pour rejoindre Cordemais,puis retour par lavau s / Loire.Passages dans les marais et joli point de vu sur l'estuaire de la Loire à cordemais. Retour par le trou bleu à Lavau s/Loire.]]></desc>
  </metadata>
  <trk>
    <name><![CDATA[Savenay-cordemais-lavau Sur Loire on GPSies.com]]></name>
    <trkseg>
      <trkpt lat="47.30203" lon="-1.8848">
        <ele>8.789185</ele>
        <time>2009-11-04T09:06:03Z</time>
      </trkpt>
      <trkpt lat="47.30194" lon="-1.88462">
        <ele>8.789185</ele>
        <time>2009-11-04T09:06:07Z</time>
      </trkpt>
      <trkpt lat="47.30145" lon="-1.88459">
        <ele>8.308594</ele>
        <time>2009-11-04T09:06:17Z</time>
      </trkpt>
      <trkpt lat="47.30111" lon="-1.88457">
        <ele>8.308594</ele>
        <time>2009-11-04T09:06:24Z</time>
      </trkpt>
      <trkpt lat="47.30069" lon="-1.88458">
        <ele>8.308594</ele>
        <time>2009-11-04T09:06:33Z</time>
      </trkpt>
      <trkpt lat="47.30031" lon="-1.88462">
        <ele>7.827881</ele>
        <time>2009-11-04T09:06:41Z</time>
      </trkpt>
      <trkpt lat="47.29994" lon="-1.88478">
        <ele>8.308594</ele>
        <time>2009-11-04T09:06:49Z</time>
      </trkpt>
      <trkpt lat="47.29989" lon="-1.8848">
        <ele>8.308594</ele>
        <time>2009-11-04T09:06:50Z</time>
      </trkpt>
      <trkpt lat="47.29971" lon="-1.88504">
        <ele>7.347168</ele>
        <time>2009-11-04T09:06:55Z</time>
      </trkpt>
      <trkpt lat="47.29968" lon="-1.88518">
        <ele>7.827881</ele>
        <time>2009-11-04T09:06:57Z</time>
      </trkpt>
      <trkpt lat="47.29964" lon="-1.88538">
        <ele>8.308594</ele>
        <time>2009-11-04T09:07:00Z</time>
      </trkpt>
      <trkpt lat="47.29965" lon="-1.88572">
        <ele>8.308594</ele>
        <time>2009-11-04T09:07:05Z</time>
      </trkpt>
      <trkpt lat="47.29958" lon="-1.88595">
        <ele>7.347168</ele>
        <time>2009-11-04T09:07:09Z</time>
      </trkpt>
      <trkpt lat="47.29954" lon="-1.88598">
        <ele>6.866455</ele>
        <time>2009-11-04T09:07:10Z</time>
      </trkpt>
      <trkpt lat="47.29931" lon="-1.88592">
        <ele>7.827881</ele>
        <time>2009-11-04T09:07:16Z</time>
      </trkpt>
      <trkpt lat="47.29921" lon="-1.8856">
        <ele>7.347168</ele>
        <time>2009-11-04T09:07:21Z</time>
      </trkpt>
      <trkpt lat="47.29917" lon="-1.88548">
        <ele>7.827881</ele>
        <time>2009-11-04T09:07:23Z</time>
      </trkpt>
      <trkpt lat="47.29907" lon="-1.88533">
        <ele>8.308594</ele>
        <time>2009-11-04T09:07:26Z</time>
      </trkpt>
      <trkpt lat="47.29886" lon="-1.8852">
        <ele>7.827881</ele>
        <time>2009-11-04T09:07:31Z</time>
      </trkpt>
      <trkpt lat="47.29846" lon="-1.88494">
        <ele>7.347168</ele>
        <time>2009-11-04T09:07:40Z</time>
      </trkpt>
      <trkpt lat="47.29823" lon="-1.88477">
        <ele>6.866455</ele>
        <time>2009-11-04T09:07:46Z</time>
      </trkpt>
      <trkpt lat="47.29807" lon="-1.88465">
        <ele>6.866455</ele>
        <time>2009-11-04T09:07:50Z</time>
      </trkpt>
      <trkpt lat="47.29774" lon="-1.88447">
        <ele>7.347168</ele>
        <time>2009-11-04T09:07:57Z</time>
      </trkpt>
      <trkpt lat="47.29747" lon="-1.88434">
        <ele>7.827881</ele>
        <time>2009-11-04T09:08:03Z</time>
      </trkpt>
      <trkpt lat="47.29712" lon="-1.88414">
        <ele>7.347168</ele>
        <time>2009-11-04T09:08:11Z</time>
      </trkpt>
      <trkpt lat="47.29687" lon="-1.8839">
        <ele>6.866455</ele>
        <time>2009-11-04T09:08:17Z</time>
      </trkpt>
      <trkpt lat="47.29661" lon="-1.88357">
        <ele>7.347168</ele>
        <time>2009-11-04T09:08:24Z</time>
      </trkpt>
      <trkpt lat="47.29634" lon="-1.88325">
        <ele>6.385864</ele>
        <time>2009-11-04T09:08:31Z</time>
      </trkpt>
      <trkpt lat="47.29611" lon="-1.88298">
        <ele>6.866455</ele>
        <time>2009-11-04T09:08:37Z</time>
      </trkpt>
      <trkpt lat="47.29588" lon="-1.88267">
        <ele>6.866455</ele>
        <time>2009-11-04T09:08:44Z</time>
      </trkpt>
      <trkpt lat="47.29585" lon="-1.88264">
        <ele>6.866455</ele>
        <time>2009-11-04T09:08:45Z</time>
      </trkpt>
      <trkpt lat="47.29554" lon="-1.88229">
        <ele>6.866455</ele>
        <time>2009-11-04T09:08:54Z</time>
      </trkpt>
      <trkpt lat="47.29534" lon="-1.88211">
        <ele>7.347168</ele>
        <time>2009-11-04T09:09:00Z</time>
      </trkpt>
      <trkpt lat="47.29522" lon="-1.88194">
        <ele>7.827881</ele>
        <time>2009-11-04T09:09:05Z</time>
      </trkpt>
      <trkpt lat="47.29516" lon="-1.88162">
        <ele>8.308594</ele>
        <time>2009-11-04T09:09:11Z</time>
      </trkpt>
      <trkpt lat="47.29509" lon="-1.88127">
        <ele>8.308594</ele>
        <time>2009-11-04T09:09:18Z</time>
      </trkpt>
      <trkpt lat="47.295" lon="-1.8809">
        <ele>9.269897</ele>
        <time>2009-11-04T09:09:25Z</time>
      </trkpt>
      <trkpt lat="47.2949" lon="-1.8806">
        <ele>9.269897</ele>
        <time>2009-11-04T09:09:32Z</time>
      </trkpt>
      <trkpt lat="47.29485" lon="-1.88051">
        <ele>10.2312</ele>
        <time>2009-11-04T09:09:35Z</time>
      </trkpt>
      <trkpt lat="47.29475" lon="-1.88057">
        <ele>8.789185</ele>
        <time>2009-11-04T09:09:39Z</time>
      </trkpt>
      <trkpt lat="47.29447" lon="-1.88092">
        <ele>8.789185</ele>
        <time>2009-11-04T09:09:47Z</time>
      </trkpt>
      <trkpt lat="47.29412" lon="-1.88125">
        <ele>8.789185</ele>
        <time>2009-11-04T09:09:56Z</time>
      </trkpt>
      <trkpt lat="47.294" lon="-1.88135">
        <ele>8.789185</ele>
        <time>2009-11-04T09:09:59Z</time>
      </trkpt>
      <trkpt lat="47.29374" lon="-1.88161">
        <ele>7.827881</ele>
        <time>2009-11-04T09:10:06Z</time>
      </trkpt>
      <trkpt lat="47.2937" lon="-1.88164">
        <ele>7.827881</ele>
        <time>2009-11-04T09:10:07Z</time>
      </trkpt>
      <trkpt lat="47.29358" lon="-1.88176">
        <ele>7.827881</ele>
        <time>2009-11-04T09:10:10Z</time>
      </trkpt>
      <trkpt lat="47.29344" lon="-1.88203">
        <ele>7.347168</ele>
        <time>2009-11-04T09:10:15Z</time>
      </trkpt>
      <trkpt lat="47.2934" lon="-1.88207">
        <ele>7.827881</ele>
        <time>2009-11-04T09:10:16Z</time>
      </trkpt>
      <trkpt lat="47.29301" lon="-1.88255">
        <ele>7.347168</ele>
        <time>2009-11-04T09:10:27Z</time>
      </trkpt>
      <trkpt lat="47.29276" lon="-1.88292">
        <ele>6.866455</ele>
        <time>2009-11-04T09:10:35Z</time>
      </trkpt>
      <trkpt lat="47.29272" lon="-1.88297">
        <ele>7.347168</ele>
        <time>2009-11-04T09:10:36Z</time>
      </trkpt>
      <trkpt lat="47.2925" lon="-1.8832">
        <ele>6.866455</ele>
        <time>2009-11-04T09:10:42Z</time>
      </trkpt>
      <trkpt lat="47.29215" lon="-1.88334">
        <ele>7.347168</ele>
        <time>2009-11-04T09:10:51Z</time>
      </trkpt>
      <trkpt lat="47.29186" lon="-1.88345">
        <ele>7.827881</ele>
        <time>2009-11-04T09:10:58Z</time>
      </trkpt>
      <trkpt lat="47.29167" lon="-1.88354">
        <ele>6.866455</ele>
        <time>2009-11-04T09:11:02Z</time>
      </trkpt>
      <trkpt lat="47.2913" lon="-1.88386">
        <ele>6.385864</ele>
        <time>2009-11-04T09:11:11Z</time>
      </trkpt>
      <trkpt lat="47.29113" lon="-1.88409">
        <ele>5.905273</ele>
        <time>2009-11-04T09:11:16Z</time>
      </trkpt>
      <trkpt lat="47.29093" lon="-1.88435">
        <ele>7.347168</ele>
        <time>2009-11-04T09:11:22Z</time>
      </trkpt>
      <trkpt lat="47.29051" lon="-1.88474">
        <ele>7.347168</ele>
        <time>2009-11-04T09:11:33Z</time>
      </trkpt>
      <trkpt lat="47.29019" lon="-1.88509">
        <ele>6.866455</ele>
        <time>2009-11-04T09:11:42Z</time>
      </trkpt>
      <trkpt lat="47.28995" lon="-1.88536">
        <ele>6.866455</ele>
        <time>2009-11-04T09:11:49Z</time>
      </trkpt>
      <trkpt lat="47.28984" lon="-1.88554">
        <ele>6.866455</ele>
        <time>2009-11-04T09:11:53Z</time>
      </trkpt>
      <trkpt lat="47.28979" lon="-1.88571">
        <ele>6.866455</ele>
        <time>2009-11-04T09:11:56Z</time>
      </trkpt>
      <trkpt lat="47.2897" lon="-1.88606">
        <ele>6.866455</ele>
        <time>2009-11-04T09:12:02Z</time>
      </trkpt>
      <trkpt lat="47.28953" lon="-1.88625">
        <ele>6.385864</ele>
        <time>2009-11-04T09:12:07Z</time>
      </trkpt>
      <trkpt lat="47.28915" lon="-1.88641">
        <ele>6.385864</ele>
        <time>2009-11-04T09:12:16Z</time>
      </trkpt>
      <trkpt lat="47.28893" lon="-1.88647">
        <ele>6.866455</ele>
        <time>2009-11-04T09:12:21Z</time>
      </trkpt>
      <trkpt lat="47.28865" lon="-1.88669">
        <ele>6.385864</ele>
        <time>2009-11-04T09:12:28Z</time>
      </trkpt>
      <trkpt lat="47.28843" lon="-1.88694">
        <ele>7.827881</ele>
        <time>2009-11-04T09:12:34Z</time>
      </trkpt>
      <trkpt lat="47.28832" lon="-1.88706">
        <ele>7.827881</ele>
        <time>2009-11-04T09:12:37Z</time>
      </trkpt>
      <trkpt lat="47.28793" lon="-1.88737">
        <ele>6.385864</ele>
        <time>2009-11-04T09:12:47Z</time>
      </trkpt>
      <trkpt lat="47.28768" lon="-1.88762">
        <ele>7.347168</ele>
        <time>2009-11-04T09:12:54Z</time>
      </trkpt>
      <trkpt lat="47.28745" lon="-1.88791">
        <ele>7.347168</ele>
        <time>2009-11-04T09:13:01Z</time>
      </trkpt>
      <trkpt lat="47.28716" lon="-1.88819">
        <ele>7.347168</ele>
        <time>2009-11-04T09:13:09Z</time>
      </trkpt>
      <trkpt lat="47.28677" lon="-1.88857">
        <ele>6.866455</ele>
        <time>2009-11-04T09:13:20Z</time>
      </trkpt>
      <trkpt lat="47.28642" lon="-1.88891">
        <ele>6.866455</ele>
        <time>2009-11-04T09:13:30Z</time>
      </trkpt>
      <trkpt lat="47.28605" lon="-1.88924">
        <ele>6.866455</ele>
        <time>2009-11-04T09:13:40Z</time>
      </trkpt>
      <trkpt lat="47.28566" lon="-1.88955">
        <ele>7.347168</ele>
        <time>2009-11-04T09:13:50Z</time>
      </trkpt>
      <trkpt lat="47.28532" lon="-1.88988">
        <ele>6.866455</ele>
        <time>2009-11-04T09:13:59Z</time>
      </trkpt>
      <trkpt lat="47.2852" lon="-1.88998">
        <ele>6.385864</ele>
        <time>2009-11-04T09:14:02Z</time>
      </trkpt>
      <trkpt lat="47.28483" lon="-1.89022">
        <ele>6.385864</ele>
        <time>2009-11-04T09:14:11Z</time>
      </trkpt>
      <trkpt lat="47.28457" lon="-1.89051">
        <ele>5.905273</ele>
        <time>2009-11-04T09:14:18Z</time>
      </trkpt>
      <trkpt lat="47.28443" lon="-1.89084">
        <ele>5.424561</ele>
        <time>2009-11-04T09:14:24Z</time>
      </trkpt>
      <trkpt lat="47.28428" lon="-1.89102">
        <ele>5.905273</ele>
        <time>2009-11-04T09:14:29Z</time>
      </trkpt>
      <trkpt lat="47.28421" lon="-1.89091">
        <ele>5.905273</ele>
        <time>2009-11-04T09:14:32Z</time>
      </trkpt>
      <trkpt lat="47.28424" lon="-1.8908">
        <ele>4.943848</ele>
        <time>2009-11-04T09:14:34Z</time>
      </trkpt>
      <trkpt lat="47.28434" lon="-1.89052">
        <ele>5.424561</ele>
        <time>2009-11-04T09:14:39Z</time>
      </trkpt>
      <trkpt lat="47.28434" lon="-1.89022">
        <ele>5.905273</ele>
        <time>2009-11-04T09:14:44Z</time>
      </trkpt>
      <trkpt lat="47.28434" lon="-1.88998">
        <ele>6.385864</ele>
        <time>2009-11-04T09:14:48Z</time>
      </trkpt>
      <trkpt lat="47.28435" lon="-1.88974">
        <ele>5.905273</ele>
        <time>2009-11-04T09:14:52Z</time>
      </trkpt>
      <trkpt lat="47.28423" lon="-1.88949">
        <ele>6.385864</ele>
        <time>2009-11-04T09:14:57Z</time>
      </trkpt>
      <trkpt lat="47.28404" lon="-1.8893">
        <ele>5.905273</ele>
        <time>2009-11-04T09:15:02Z</time>
      </trkpt>
      <trkpt lat="47.2839" lon="-1.88901">
        <ele>5.905273</ele>
        <time>2009-11-04T09:15:07Z</time>
      </trkpt>
      <trkpt lat="47.28375" lon="-1.88834">
        <ele>5.424561</ele>
        <time>2009-11-04T09:15:17Z</time>
      </trkpt>
      <trkpt lat="47.28366" lon="-1.88791">
        <ele>5.905273</ele>
        <time>2009-11-04T09:15:24Z</time>
      </trkpt>
      <trkpt lat="47.2835" lon="-1.88749">
        <ele>6.866455</ele>
        <time>2009-11-04T09:15:31Z</time>
      </trkpt>
      <trkpt lat="47.28348" lon="-1.88743">
        <ele>6.866455</ele>
        <time>2009-11-04T09:15:32Z</time>
      </trkpt>
      <trkpt lat="47.2834" lon="-1.88714">
        <ele>6.385864</ele>
        <time>2009-11-04T09:15:37Z</time>
      </trkpt>
      <trkpt lat="47.28317" lon="-1.88653">
        <ele>6.385864</ele>
        <time>2009-11-04T09:15:47Z</time>
      </trkpt>
      <trkpt lat="47.28305" lon="-1.88631">
        <ele>5.905273</ele>
        <time>2009-11-04T09:15:51Z</time>
      </trkpt>
      <trkpt lat="47.28289" lon="-1.88586">
        <ele>5.905273</ele>
        <time>2009-11-04T09:15:58Z</time>
      </trkpt>
      <trkpt lat="47.2828" lon="-1.8854">
        <ele>5.424561</ele>
        <time>2009-11-04T09:16:05Z</time>
      </trkpt>
      <trkpt lat="47.28266" lon="-1.88487">
        <ele>5.905273</ele>
        <time>2009-11-04T09:16:13Z</time>
      </trkpt>
      <trkpt lat="47.28264" lon="-1.88481">
        <ele>5.905273</ele>
        <time>2009-11-04T09:16:14Z</time>
      </trkpt>
      <trkpt lat="47.28252" lon="-1.88465">
        <ele>6.385864</ele>
        <time>2009-11-04T09:16:18Z</time>
      </trkpt>
      <trkpt lat="47.28244" lon="-1.88466">
        <ele>7.347168</ele>
        <time>2009-11-04T09:16:20Z</time>
      </trkpt>
      <trkpt lat="47.28209" lon="-1.88485">
        <ele>6.866455</ele>
        <time>2009-11-04T09:16:29Z</time>
      </trkpt>
      <trkpt lat="47.28178" lon="-1.88501">
        <ele>7.347168</ele>
        <time>2009-11-04T09:16:37Z</time>
      </trkpt>
      <trkpt lat="47.28161" lon="-1.88509">
        <ele>6.866455</ele>
        <time>2009-11-04T09:16:42Z</time>
      </trkpt>
      <trkpt lat="47.2816" lon="-1.88524">
        <ele>5.905273</ele>
        <time>2009-11-04T09:16:46Z</time>
      </trkpt>
      <trkpt lat="47.28174" lon="-1.88559">
        <ele>6.385864</ele>
        <time>2009-11-04T09:16:53Z</time>
      </trkpt>
      <trkpt lat="47.28187" lon="-1.88584">
        <ele>5.905273</ele>
        <time>2009-11-04T09:16:59Z</time>
      </trkpt>
      <trkpt lat="47.28202" lon="-1.88615">
        <ele>6.385864</ele>
        <time>2009-11-04T09:17:05Z</time>
      </trkpt>
      <trkpt lat="47.28222" lon="-1.88654">
        <ele>4.943848</ele>
        <time>2009-11-04T09:17:12Z</time>
      </trkpt>
      <trkpt lat="47.28243" lon="-1.88709">
        <ele>4.943848</ele>
        <time>2009-11-04T09:17:21Z</time>
      </trkpt>
      <trkpt lat="47.28249" lon="-1.88736">
        <ele>5.424561</ele>
        <time>2009-11-04T09:17:25Z</time>
      </trkpt>
      <trkpt lat="47.28259" lon="-1.88778">
        <ele>4.943848</ele>
        <time>2009-11-04T09:17:31Z</time>
      </trkpt>
      <trkpt lat="47.28274" lon="-1.88844">
        <ele>4.943848</ele>
        <time>2009-11-04T09:17:41Z</time>
      </trkpt>
      <trkpt lat="47.2829" lon="-1.88909">
        <ele>4.943848</ele>
        <time>2009-11-04T09:17:51Z</time>
      </trkpt>
      <trkpt lat="47.28311" lon="-1.88997">
        <ele>4.943848</ele>
        <time>2009-11-04T09:18:05Z</time>
      </trkpt>
      <trkpt lat="47.28324" lon="-1.89054">
        <ele>5.424561</ele>
        <time>2009-11-04T09:18:14Z</time>
      </trkpt>
      <trkpt lat="47.28335" lon="-1.89103">
        <ele>4.943848</ele>
        <time>2009-11-04T09:18:22Z</time>
      </trkpt>
      <trkpt lat="47.28344" lon="-1.8916">
        <ele>4.943848</ele>
        <time>2009-11-04T09:18:31Z</time>
      </trkpt>
      <trkpt lat="47.28343" lon="-1.89214">
        <ele>5.424561</ele>
        <time>2009-11-04T09:18:39Z</time>
      </trkpt>
      <trkpt lat="47.28333" lon="-1.89273">
        <ele>5.905273</ele>
        <time>2009-11-04T09:18:48Z</time>
      </trkpt>
      <trkpt lat="47.28329" lon="-1.89286">
        <ele>5.424561</ele>
        <time>2009-11-04T09:18:50Z</time>
      </trkpt>
      <trkpt lat="47.28308" lon="-1.89337">
        <ele>5.905273</ele>
        <time>2009-11-04T09:18:59Z</time>
      </trkpt>
      <trkpt lat="47.28285" lon="-1.8937">
        <ele>5.424561</ele>
        <time>2009-11-04T09:19:06Z</time>
      </trkpt>
      <trkpt lat="47.28257" lon="-1.89403">
        <ele>5.424561</ele>
        <time>2009-11-04T09:19:14Z</time>
      </trkpt>
      <trkpt lat="47.28235" lon="-1.89431">
        <ele>5.424561</ele>
        <time>2009-11-04T09:19:21Z</time>
      </trkpt>
      <trkpt lat="47.28228" lon="-1.89442">
        <ele>6.385864</ele>
        <time>2009-11-04T09:19:24Z</time>
      </trkpt>
      <trkpt lat="47.28237" lon="-1.89453">
        <ele>3.982666</ele>
        <time>2009-11-04T09:19:28Z</time>
      </trkpt>
      <trkpt lat="47.28241" lon="-1.89455">
        <ele>4.463257</ele>
        <time>2009-11-04T09:19:29Z</time>
      </trkpt>
      <trkpt lat="47.28245" lon="-1.89474">
        <ele>4.463257</ele>
        <time>2009-11-04T09:19:33Z</time>
      </trkpt>
      <trkpt lat="47.28241" lon="-1.89485">
        <ele>5.424561</ele>
        <time>2009-11-04T09:19:35Z</time>
      </trkpt>
      <trkpt lat="47.28205" lon="-1.89557">
        <ele>4.463257</ele>
        <time>2009-11-04T09:19:48Z</time>
      </trkpt>
      <trkpt lat="47.2818" lon="-1.89605">
        <ele>3.501953</ele>
        <time>2009-11-04T09:19:57Z</time>
      </trkpt>
      <trkpt lat="47.28161" lon="-1.89647">
        <ele>4.463257</ele>
        <time>2009-11-04T09:20:05Z</time>
      </trkpt>
      <trkpt lat="47.28149" lon="-1.89665">
        <ele>3.982666</ele>
        <time>2009-11-04T09:20:10Z</time>
      </trkpt>
      <trkpt lat="47.28141" lon="-1.89675">
        <ele>5.424561</ele>
        <time>2009-11-04T09:20:15Z</time>
      </trkpt>
      <trkpt lat="47.28141" lon="-1.89686">
        <ele>3.982666</ele>
        <time>2009-11-04T09:20:20Z</time>
      </trkpt>
      <trkpt lat="47.28148" lon="-1.89705">
        <ele>4.463257</ele>
        <time>2009-11-04T09:20:26Z</time>
      </trkpt>
      <trkpt lat="47.28151" lon="-1.89709">
        <ele>3.982666</ele>
        <time>2009-11-04T09:20:31Z</time>
      </trkpt>
      <trkpt lat="47.28152" lon="-1.8971">
        <ele>3.982666</ele>
        <time>2009-11-04T09:20:40Z</time>
      </trkpt>
      <trkpt lat="47.28152" lon="-1.8971">
        <ele>4.463257</ele>
        <time>2009-11-04T09:20:55Z</time>
      </trkpt>
      <trkpt lat="47.28152" lon="-1.8971">
        <ele>1.579346</ele>
        <time>2009-11-04T09:20:58Z</time>
      </trkpt>
      <trkpt lat="47.28152" lon="-1.8971">
        <ele>5.424561</ele>
        <time>2009-11-04T09:21:03Z</time>
      </trkpt>
      <trkpt lat="47.28151" lon="-1.89709">
        <ele>6.866455</ele>
        <time>2009-11-04T09:21:05Z</time>
      </trkpt>
      <trkpt lat="47.2815" lon="-1.89705">
        <ele>4.943848</ele>
        <time>2009-11-04T09:21:07Z</time>
      </trkpt>
      <trkpt lat="47.28149" lon="-1.897">
        <ele>4.943848</ele>
        <time>2009-11-04T09:21:09Z</time>
      </trkpt>
      <trkpt lat="47.28145" lon="-1.89683">
        <ele>4.463257</ele>
        <time>2009-11-04T09:21:14Z</time>
      </trkpt>
      <trkpt lat="47.2815" lon="-1.89661">
        <ele>3.982666</ele>
        <time>2009-11-04T09:21:19Z</time>
      </trkpt>
      <trkpt lat="47.28152" lon="-1.89657">
        <ele>3.501953</ele>
        <time>2009-11-04T09:21:20Z</time>
      </trkpt>
      <trkpt lat="47.28163" lon="-1.89648">
        <ele>4.943848</ele>
        <time>2009-11-04T09:21:24Z</time>
      </trkpt>
      <trkpt lat="47.28169" lon="-1.89638">
        <ele>4.463257</ele>
        <time>2009-11-04T09:21:26Z</time>
      </trkpt>
      <trkpt lat="47.28192" lon="-1.89589">
        <ele>4.463257</ele>
        <time>2009-11-04T09:21:35Z</time>
      </trkpt>
      <trkpt lat="47.28217" lon="-1.89535">
        <ele>3.501953</ele>
        <time>2009-11-04T09:21:44Z</time>
      </trkpt>
      <trkpt lat="47.28244" lon="-1.89475">
        <ele>4.943848</ele>
        <time>2009-11-04T09:21:54Z</time>
      </trkpt>
      <trkpt lat="47.28246" lon="-1.89454">
        <ele>5.424561</ele>
        <time>2009-11-04T09:21:58Z</time>
      </trkpt>
      <trkpt lat="47.28243" lon="-1.8945">
        <ele>5.905273</ele>
        <time>2009-11-04T09:21:59Z</time>
      </trkpt>
      <trkpt lat="47.28233" lon="-1.89441">
        <ele>5.424561</ele>
        <time>2009-11-04T09:22:02Z</time>
      </trkpt>
      <trkpt lat="47.28235" lon="-1.89427">
        <ele>5.905273</ele>
        <time>2009-11-04T09:22:05Z</time>
      </trkpt>
      <trkpt lat="47.28238" lon="-1.89423">
        <ele>5.905273</ele>
        <time>2009-11-04T09:22:06Z</time>
      </trkpt>
      <trkpt lat="47.28273" lon="-1.89381">
        <ele>5.905273</ele>
        <time>2009-11-04T09:22:16Z</time>
      </trkpt>
      <trkpt lat="47.28301" lon="-1.89344">
        <ele>4.943848</ele>
        <time>2009-11-04T09:22:24Z</time>
      </trkpt>
      <trkpt lat="47.28316" lon="-1.89311">
        <ele>5.424561</ele>
        <time>2009-11-04T09:22:30Z</time>
      </trkpt>
      <trkpt lat="47.28334" lon="-1.89255">
        <ele>4.943848</ele>
        <time>2009-11-04T09:22:39Z</time>
      </trkpt>
      <trkpt lat="47.28342" lon="-1.892">
        <ele>4.943848</ele>
        <time>2009-11-04T09:22:47Z</time>
      </trkpt>
      <trkpt lat="47.28339" lon="-1.89134">
        <ele>3.982666</ele>
        <time>2009-11-04T09:22:56Z</time>
      </trkpt>
      <trkpt lat="47.28333" lon="-1.89098">
        <ele>3.501953</ele>
        <time>2009-11-04T09:23:01Z</time>
      </trkpt>
      <trkpt lat="47.28323" lon="-1.89052">
        <ele>4.463257</ele>
        <time>2009-11-04T09:23:08Z</time>
      </trkpt>
      <trkpt lat="47.28306" lon="-1.88986">
        <ele>4.463257</ele>
        <time>2009-11-04T09:23:18Z</time>
      </trkpt>
      <trkpt lat="47.28288" lon="-1.88913">
        <ele>4.463257</ele>
        <time>2009-11-04T09:23:29Z</time>
      </trkpt>
      <trkpt lat="47.28276" lon="-1.8886">
        <ele>4.463257</ele>
        <time>2009-11-04T09:23:37Z</time>
      </trkpt>
      <trkpt lat="47.28267" lon="-1.88824">
        <ele>4.463257</ele>
        <time>2009-11-04T09:23:43Z</time>
      </trkpt>
      <trkpt lat="47.28253" lon="-1.88767">
        <ele>4.463257</ele>
        <time>2009-11-04T09:23:52Z</time>
      </trkpt>
      <trkpt lat="47.28237" lon="-1.88697">
        <ele>4.943848</ele>
        <time>2009-11-04T09:24:03Z</time>
      </trkpt>
      <trkpt lat="47.28221" lon="-1.88655">
        <ele>4.463257</ele>
        <time>2009-11-04T09:24:10Z</time>
      </trkpt>
      <trkpt lat="47.28208" lon="-1.88631">
        <ele>4.463257</ele>
        <time>2009-11-04T09:24:15Z</time>
      </trkpt>
      <trkpt lat="47.28182" lon="-1.88586">
        <ele>5.424561</ele>
        <time>2009-11-04T09:24:24Z</time>
      </trkpt>
      <trkpt lat="47.28169" lon="-1.88562">
        <ele>4.943848</ele>
        <time>2009-11-04T09:24:29Z</time>
      </trkpt>
      <trkpt lat="47.28157" lon="-1.88531">
        <ele>4.943848</ele>
        <time>2009-11-04T09:24:35Z</time>
      </trkpt>
      <trkpt lat="47.28154" lon="-1.88517">
        <ele>4.943848</ele>
        <time>2009-11-04T09:24:38Z</time>
      </trkpt>
      <trkpt lat="47.28165" lon="-1.88505">
        <ele>3.982666</ele>
        <time>2009-11-04T09:24:42Z</time>
      </trkpt>
      <trkpt lat="47.28208" lon="-1.88485">
        <ele>3.982666</ele>
        <time>2009-11-04T09:24:52Z</time>
      </trkpt>
      <trkpt lat="47.28237" lon="-1.88471">
        <ele>4.943848</ele>
        <time>2009-11-04T09:24:59Z</time>
      </trkpt>
      <trkpt lat="47.28254" lon="-1.88464">
        <ele>3.982666</ele>
        <time>2009-11-04T09:25:03Z</time>
      </trkpt>
      <trkpt lat="47.28278" lon="-1.88455">
        <ele>3.982666</ele>
        <time>2009-11-04T09:25:09Z</time>
      </trkpt>
      <trkpt lat="47.28282" lon="-1.88456">
        <ele>3.982666</ele>
        <time>2009-11-04T09:25:10Z</time>
      </trkpt>
      <trkpt lat="47.28293" lon="-1.8846">
        <ele>3.982666</ele>
        <time>2009-11-04T09:25:14Z</time>
      </trkpt>
      <trkpt lat="47.28321" lon="-1.88447">
        <ele>3.982666</ele>
        <time>2009-11-04T09:25:21Z</time>
      </trkpt>
      <trkpt lat="47.28342" lon="-1.88428">
        <ele>3.982666</ele>
        <time>2009-11-04T09:25:27Z</time>
      </trkpt>
      <trkpt lat="47.28361" lon="-1.88414">
        <ele>4.463257</ele>
        <time>2009-11-04T09:25:32Z</time>
      </trkpt>
      <trkpt lat="47.28369" lon="-1.88407">
        <ele>4.463257</ele>
        <time>2009-11-04T09:25:34Z</time>
      </trkpt>
      <trkpt lat="47.28391" lon="-1.88403">
        <ele>3.982666</ele>
        <time>2009-11-04T09:25:39Z</time>
      </trkpt>
      <trkpt lat="47.28405" lon="-1.88403">
        <ele>3.982666</ele>
        <time>2009-11-04T09:25:42Z</time>
      </trkpt>
      <trkpt lat="47.28443" lon="-1.88386">
        <ele>3.501953</ele>
        <time>2009-11-04T09:25:50Z</time>
      </trkpt>
      <trkpt lat="47.28448" lon="-1.88384">
        <ele>4.463257</ele>
        <time>2009-11-04T09:25:51Z</time>
      </trkpt>
      <trkpt lat="47.28494" lon="-1.88363">
        <ele>4.463257</ele>
        <time>2009-11-04T09:26:01Z</time>
      </trkpt>
      <trkpt lat="47.28535" lon="-1.88343">
        <ele>3.501953</ele>
        <time>2009-11-04T09:26:10Z</time>
      </trkpt>
      <trkpt lat="47.28586" lon="-1.88319">
        <ele>4.463257</ele>
        <time>2009-11-04T09:26:21Z</time>
      </trkpt>
      <trkpt lat="47.28622" lon="-1.883">
        <ele>3.982666</ele>
        <time>2009-11-04T09:26:29Z</time>
      </trkpt>
      <trkpt lat="47.28663" lon="-1.8828">
        <ele>5.424561</ele>
        <time>2009-11-04T09:26:39Z</time>
      </trkpt>
      <trkpt lat="47.28698" lon="-1.88264">
        <ele>5.424561</ele>
        <time>2009-11-04T09:26:48Z</time>
      </trkpt>
      <trkpt lat="47.28718" lon="-1.88259">
        <ele>5.424561</ele>
        <time>2009-11-04T09:26:54Z</time>
      </trkpt>
      <trkpt lat="47.28721" lon="-1.88262">
        <ele>5.905273</ele>
        <time>2009-11-04T09:26:55Z</time>
      </trkpt>
      <trkpt lat="47.28725" lon="-1.88282">
        <ele>5.905273</ele>
        <time>2009-11-04T09:26:59Z</time>
      </trkpt>
      <trkpt lat="47.28723" lon="-1.88299">
        <ele>6.385864</ele>
        <time>2009-11-04T09:27:02Z</time>
      </trkpt>
      <trkpt lat="47.28712" lon="-1.88336">
        <ele>5.424561</ele>
        <time>2009-11-04T09:27:08Z</time>
      </trkpt>
      <trkpt lat="47.28694" lon="-1.88361">
        <ele>4.943848</ele>
        <time>2009-11-04T09:27:13Z</time>
      </trkpt>
      <trkpt lat="47.28687" lon="-1.88371">
        <ele>4.943848</ele>
        <time>2009-11-04T09:27:15Z</time>
      </trkpt>
      <trkpt lat="47.28675" lon="-1.88394">
        <ele>4.463257</ele>
        <time>2009-11-04T09:27:20Z</time>
      </trkpt>
      <trkpt lat="47.28672" lon="-1.88399">
        <ele>4.943848</ele>
        <time>2009-11-04T09:27:21Z</time>
      </trkpt>
      <trkpt lat="47.28662" lon="-1.88442">
        <ele>3.982666</ele>
        <time>2009-11-04T09:27:28Z</time>
      </trkpt>
      <trkpt lat="47.28664" lon="-1.88455">
        <ele>4.463257</ele>
        <time>2009-11-04T09:27:30Z</time>
      </trkpt>
      <trkpt lat="47.28685" lon="-1.88517">
        <ele>3.982666</ele>
        <time>2009-11-04T09:27:39Z</time>
      </trkpt>
      <trkpt lat="47.28705" lon="-1.8857">
        <ele>3.982666</ele>
        <time>2009-11-04T09:27:47Z</time>
      </trkpt>
      <trkpt lat="47.28731" lon="-1.88631">
        <ele>4.463257</ele>
        <time>2009-11-04T09:27:57Z</time>
      </trkpt>
      <trkpt lat="47.28749" lon="-1.88675">
        <ele>3.02124</ele>
        <time>2009-11-04T09:28:04Z</time>
      </trkpt>
      <trkpt lat="47.2877" lon="-1.88725">
        <ele>3.02124</ele>
        <time>2009-11-04T09:28:12Z</time>
      </trkpt>
      <trkpt lat="47.28779" lon="-1.88744">
        <ele>3.02124</ele>
        <time>2009-11-04T09:28:16Z</time>
      </trkpt>
      <trkpt lat="47.28794" lon="-1.88741">
        <ele>3.02124</ele>
        <time>2009-11-04T09:28:20Z</time>
      </trkpt>
      <trkpt lat="47.28809" lon="-1.88729">
        <ele>3.501953</ele>
        <time>2009-11-04T09:28:24Z</time>
      </trkpt>
      <trkpt lat="47.28839" lon="-1.88703">
        <ele>3.02124</ele>
        <time>2009-11-04T09:28:32Z</time>
      </trkpt>
      <trkpt lat="47.28872" lon="-1.88666">
        <ele>3.02124</ele>
        <time>2009-11-04T09:28:41Z</time>
      </trkpt>
      <trkpt lat="47.28887" lon="-1.88651">
        <ele>3.02124</ele>
        <time>2009-11-04T09:28:45Z</time>
      </trkpt>
      <trkpt lat="47.28914" lon="-1.88641">
        <ele>3.02124</ele>
        <time>2009-11-04T09:28:51Z</time>
      </trkpt>
      <trkpt lat="47.28952" lon="-1.88627">
        <ele>3.02124</ele>
        <time>2009-11-04T09:28:59Z</time>
      </trkpt>
      <trkpt lat="47.28961" lon="-1.88623">
        <ele>3.02124</ele>
        <time>2009-11-04T09:29:01Z</time>
      </trkpt>
      <trkpt lat="47.28979" lon="-1.886">
        <ele>3.02124</ele>
        <time>2009-11-04T09:29:06Z</time>
      </trkpt>
      <trkpt lat="47.2898" lon="-1.88593">
        <ele>3.02124</ele>
        <time>2009-11-04T09:29:07Z</time>
      </trkpt>
      <trkpt lat="47.28986" lon="-1.88566">
        <ele>3.501953</ele>
        <time>2009-11-04T09:29:11Z</time>
      </trkpt>
      <trkpt lat="47.2899" lon="-1.88553">
        <ele>3.501953</ele>
        <time>2009-11-04T09:29:13Z</time>
      </trkpt>
      <trkpt lat="47.29015" lon="-1.88517">
        <ele>3.501953</ele>
        <time>2009-11-04T09:29:20Z</time>
      </trkpt>
      <trkpt lat="47.29063" lon="-1.88466">
        <ele>3.501953</ele>
        <time>2009-11-04T09:29:32Z</time>
      </trkpt>
      <trkpt lat="47.291" lon="-1.88431">
        <ele>3.02124</ele>
        <time>2009-11-04T09:29:41Z</time>
      </trkpt>
      <trkpt lat="47.29125" lon="-1.88397">
        <ele>3.501953</ele>
        <time>2009-11-04T09:29:48Z</time>
      </trkpt>
      <trkpt lat="47.29136" lon="-1.88381">
        <ele>2.540649</ele>
        <time>2009-11-04T09:29:51Z</time>
      </trkpt>
      <trkpt lat="47.29173" lon="-1.88352">
        <ele>3.501953</ele>
        <time>2009-11-04T09:29:59Z</time>
      </trkpt>
      <trkpt lat="47.29204" lon="-1.88337">
        <ele>4.463257</ele>
        <time>2009-11-04T09:30:06Z</time>
      </trkpt>
      <trkpt lat="47.29232" lon="-1.88329">
        <ele>3.982666</ele>
        <time>2009-11-04T09:30:13Z</time>
      </trkpt>
      <trkpt lat="47.29254" lon="-1.88321">
        <ele>3.501953</ele>
        <time>2009-11-04T09:30:19Z</time>
      </trkpt>
      <trkpt lat="47.29271" lon="-1.88303">
        <ele>3.501953</ele>
        <time>2009-11-04T09:30:24Z</time>
      </trkpt>
      <trkpt lat="47.29296" lon="-1.8827">
        <ele>3.02124</ele>
        <time>2009-11-04T09:30:31Z</time>
      </trkpt>
      <trkpt lat="47.29324" lon="-1.8823">
        <ele>3.501953</ele>
        <time>2009-11-04T09:30:39Z</time>
      </trkpt>
      <trkpt lat="47.29354" lon="-1.88194">
        <ele>3.982666</ele>
        <time>2009-11-04T09:30:47Z</time>
      </trkpt>
      <trkpt lat="47.29365" lon="-1.88173">
        <ele>4.943848</ele>
        <time>2009-11-04T09:30:51Z</time>
      </trkpt>
      <trkpt lat="47.29409" lon="-1.88134">
        <ele>4.463257</ele>
        <time>2009-11-04T09:31:01Z</time>
      </trkpt>
      <trkpt lat="47.29441" lon="-1.88105">
        <ele>4.943848</ele>
        <time>2009-11-04T09:31:09Z</time>
      </trkpt>
      <trkpt lat="47.29471" lon="-1.88072">
        <ele>5.424561</ele>
        <time>2009-11-04T09:31:17Z</time>
      </trkpt>
      <trkpt lat="47.29484" lon="-1.88055">
        <ele>5.905273</ele>
        <time>2009-11-04T09:31:22Z</time>
      </trkpt>
      <trkpt lat="47.29489" lon="-1.88052">
        <ele>6.385864</ele>
        <time>2009-11-04T09:31:24Z</time>
      </trkpt>
      <trkpt lat="47.29497" lon="-1.88062">
        <ele>5.905273</ele>
        <time>2009-11-04T09:31:28Z</time>
      </trkpt>
      <trkpt lat="47.29507" lon="-1.88096">
        <ele>5.424561</ele>
        <time>2009-11-04T09:31:35Z</time>
      </trkpt>
      <trkpt lat="47.29517" lon="-1.88139">
        <ele>3.982666</ele>
        <time>2009-11-04T09:31:41Z</time>
      </trkpt>
      <trkpt lat="47.29519" lon="-1.8817">
        <ele>3.982666</ele>
        <time>2009-11-04T09:31:46Z</time>
      </trkpt>
      <trkpt lat="47.29514" lon="-1.88185">
        <ele>3.501953</ele>
        <time>2009-11-04T09:31:49Z</time>
      </trkpt>
      <trkpt lat="47.29501" lon="-1.88199">
        <ele>3.501953</ele>
        <time>2009-11-04T09:31:53Z</time>
      </trkpt>
      <trkpt lat="47.2949" lon="-1.88206">
        <ele>3.02124</ele>
        <time>2009-11-04T09:31:56Z</time>
      </trkpt>
      <trkpt lat="47.29462" lon="-1.88234">
        <ele>3.982666</ele>
        <time>2009-11-04T09:32:04Z</time>
      </trkpt>
      <trkpt lat="47.29431" lon="-1.88265">
        <ele>3.02124</ele>
        <time>2009-11-04T09:32:12Z</time>
      </trkpt>
      <trkpt lat="47.29398" lon="-1.88311">
        <ele>3.02124</ele>
        <time>2009-11-04T09:32:21Z</time>
      </trkpt>
      <trkpt lat="47.29386" lon="-1.88334">
        <ele>3.501953</ele>
        <time>2009-11-04T09:32:25Z</time>
      </trkpt>
      <trkpt lat="47.29372" lon="-1.88377">
        <ele>3.501953</ele>
        <time>2009-11-04T09:32:32Z</time>
      </trkpt>
      <trkpt lat="47.2937" lon="-1.88383">
        <ele>2.540649</ele>
        <time>2009-11-04T09:32:33Z</time>
      </trkpt>
      <trkpt lat="47.29352" lon="-1.88414">
        <ele>3.982666</ele>
        <time>2009-11-04T09:32:39Z</time>
      </trkpt>
      <trkpt lat="47.29336" lon="-1.88446">
        <ele>3.501953</ele>
        <time>2009-11-04T09:32:45Z</time>
      </trkpt>
      <trkpt lat="47.29315" lon="-1.8848">
        <ele>3.02124</ele>
        <time>2009-11-04T09:32:52Z</time>
      </trkpt>
      <trkpt lat="47.29311" lon="-1.88485">
        <ele>3.02124</ele>
        <time>2009-11-04T09:32:53Z</time>
      </trkpt>
      <trkpt lat="47.29281" lon="-1.88516">
        <ele>3.501953</ele>
        <time>2009-11-04T09:33:01Z</time>
      </trkpt>
      <trkpt lat="47.29249" lon="-1.88548">
        <ele>3.02124</ele>
        <time>2009-11-04T09:33:09Z</time>
      </trkpt>
      <trkpt lat="47.29228" lon="-1.88579">
        <ele>3.02124</ele>
        <time>2009-11-04T09:33:15Z</time>
      </trkpt>
      <trkpt lat="47.29222" lon="-1.88591">
        <ele>3.02124</ele>
        <time>2009-11-04T09:33:17Z</time>
      </trkpt>
      <trkpt lat="47.29204" lon="-1.88611">
        <ele>3.02124</ele>
        <time>2009-11-04T09:33:22Z</time>
      </trkpt>
      <trkpt lat="47.29184" lon="-1.88621">
        <ele>3.02124</ele>
        <time>2009-11-04T09:33:27Z</time>
      </trkpt>
      <trkpt lat="47.29154" lon="-1.88636">
        <ele>3.02124</ele>
        <time>2009-11-04T09:33:34Z</time>
      </trkpt>
      <trkpt lat="47.29119" lon="-1.88657">
        <ele>3.02124</ele>
        <time>2009-11-04T09:33:42Z</time>
      </trkpt>
      <trkpt lat="47.29084" lon="-1.88679">
        <ele>3.501953</ele>
        <time>2009-11-04T09:33:50Z</time>
      </trkpt>
      <trkpt lat="47.29043" lon="-1.88705">
        <ele>3.982666</ele>
        <time>2009-11-04T09:33:59Z</time>
      </trkpt>
      <trkpt lat="47.29001" lon="-1.88738">
        <ele>3.501953</ele>
        <time>2009-11-04T09:34:09Z</time>
      </trkpt>
      <trkpt lat="47.28973" lon="-1.88773">
        <ele>3.501953</ele>
        <time>2009-11-04T09:34:17Z</time>
      </trkpt>
      <trkpt lat="47.2897" lon="-1.88777">
        <ele>3.501953</ele>
        <time>2009-11-04T09:34:18Z</time>
      </trkpt>
      <trkpt lat="47.2896" lon="-1.88787">
        <ele>3.982666</ele>
        <time>2009-11-04T09:34:21Z</time>
      </trkpt>
      <trkpt lat="47.28946" lon="-1.8882">
        <ele>3.02124</ele>
        <time>2009-11-04T09:34:27Z</time>
      </trkpt>
      <trkpt lat="47.28922" lon="-1.88884">
        <ele>3.02124</ele>
        <time>2009-11-04T09:34:38Z</time>
      </trkpt>
      <trkpt lat="47.289" lon="-1.88938">
        <ele>3.982666</ele>
        <time>2009-11-04T09:34:48Z</time>
      </trkpt>
      <trkpt lat="47.28877" lon="-1.88976">
        <ele>3.501953</ele>
        <time>2009-11-04T09:34:56Z</time>
      </trkpt>
      <trkpt lat="47.28855" lon="-1.8901">
        <ele>3.02124</ele>
        <time>2009-11-04T09:35:04Z</time>
      </trkpt>
      <trkpt lat="47.28839" lon="-1.89039">
        <ele>3.982666</ele>
        <time>2009-11-04T09:35:11Z</time>
      </trkpt>
      <trkpt lat="47.28828" lon="-1.8906">
        <ele>3.02124</ele>
        <time>2009-11-04T09:35:17Z</time>
      </trkpt>
      <trkpt lat="47.28811" lon="-1.89078">
        <ele>3.501953</ele>
        <time>2009-11-04T09:35:23Z</time>
      </trkpt>
      <trkpt lat="47.28778" lon="-1.89094">
        <ele>3.501953</ele>
        <time>2009-11-04T09:35:32Z</time>
      </trkpt>
      <trkpt lat="47.28744" lon="-1.89113">
        <ele>4.463257</ele>
        <time>2009-11-04T09:35:41Z</time>
      </trkpt>
      <trkpt lat="47.28715" lon="-1.89129">
        <ele>3.982666</ele>
        <time>2009-11-04T09:35:49Z</time>
      </trkpt>
      <trkpt lat="47.28681" lon="-1.89148">
        <ele>3.982666</ele>
        <time>2009-11-04T09:35:58Z</time>
      </trkpt>
      <trkpt lat="47.28647" lon="-1.89166">
        <ele>3.02124</ele>
        <time>2009-11-04T09:36:07Z</time>
      </trkpt>
      <trkpt lat="47.28617" lon="-1.89182">
        <ele>3.982666</ele>
        <time>2009-11-04T09:36:15Z</time>
      </trkpt>
      <trkpt lat="47.28614" lon="-1.89184">
        <ele>3.982666</ele>
        <time>2009-11-04T09:36:16Z</time>
      </trkpt>
      <trkpt lat="47.28611" lon="-1.89202">
        <ele>2.540649</ele>
        <time>2009-11-04T09:36:20Z</time>
      </trkpt>
      <trkpt lat="47.28613" lon="-1.89206">
        <ele>2.060059</ele>
        <time>2009-11-04T09:36:21Z</time>
      </trkpt>
      <trkpt lat="47.28614" lon="-1.89211">
        <ele>2.540649</ele>
        <time>2009-11-04T09:36:22Z</time>
      </trkpt>
      <trkpt lat="47.28631" lon="-1.89266">
        <ele>3.02124</ele>
        <time>2009-11-04T09:36:32Z</time>
      </trkpt>
      <trkpt lat="47.28645" lon="-1.89316">
        <ele>3.501953</ele>
        <time>2009-11-04T09:36:41Z</time>
      </trkpt>
      <trkpt lat="47.28662" lon="-1.89374">
        <ele>3.02124</ele>
        <time>2009-11-04T09:36:51Z</time>
      </trkpt>
      <trkpt lat="47.28677" lon="-1.89426">
        <ele>3.02124</ele>
        <time>2009-11-04T09:37:00Z</time>
      </trkpt>
      <trkpt lat="47.28692" lon="-1.89477">
        <ele>2.540649</ele>
        <time>2009-11-04T09:37:09Z</time>
      </trkpt>
      <trkpt lat="47.28704" lon="-1.89522">
        <ele>3.02124</ele>
        <time>2009-11-04T09:37:17Z</time>
      </trkpt>
      <trkpt lat="47.28718" lon="-1.89573">
        <ele>3.501953</ele>
        <time>2009-11-04T09:37:26Z</time>
      </trkpt>
      <trkpt lat="47.28737" lon="-1.89638">
        <ele>3.501953</ele>
        <time>2009-11-04T09:37:38Z</time>
      </trkpt>
      <trkpt lat="47.28754" lon="-1.89699">
        <ele>3.501953</ele>
        <time>2009-11-04T09:37:49Z</time>
      </trkpt>
      <trkpt lat="47.28758" lon="-1.89705">
        <ele>3.02124</ele>
        <time>2009-11-04T09:37:51Z</time>
      </trkpt>
      <trkpt lat="47.28768" lon="-1.89703">
        <ele>3.02124</ele>
        <time>2009-11-04T09:37:55Z</time>
      </trkpt>
      <trkpt lat="47.28791" lon="-1.8969">
        <ele>3.02124</ele>
        <time>2009-11-04T09:38:03Z</time>
      </trkpt>
      <trkpt lat="47.28822" lon="-1.89672">
        <ele>2.540649</ele>
        <time>2009-11-04T09:38:12Z</time>
      </trkpt>
      <trkpt lat="47.28859" lon="-1.8965">
        <ele>3.02124</ele>
        <time>2009-11-04T09:38:22Z</time>
      </trkpt>
      <trkpt lat="47.28897" lon="-1.89628">
        <ele>3.02124</ele>
        <time>2009-11-04T09:38:32Z</time>
      </trkpt>
      <trkpt lat="47.2893" lon="-1.89606">
        <ele>3.02124</ele>
        <time>2009-11-04T09:38:41Z</time>
      </trkpt>
      <trkpt lat="47.28976" lon="-1.89581">
        <ele>2.060059</ele>
        <time>2009-11-04T09:38:53Z</time>
      </trkpt>
      <trkpt lat="47.2901" lon="-1.89561">
        <ele>3.02124</ele>
        <time>2009-11-04T09:39:02Z</time>
      </trkpt>
      <trkpt lat="47.29048" lon="-1.89539">
        <ele>2.540649</ele>
        <time>2009-11-04T09:39:12Z</time>
      </trkpt>
      <trkpt lat="47.29079" lon="-1.89521">
        <ele>2.540649</ele>
        <time>2009-11-04T09:39:21Z</time>
      </trkpt>
      <trkpt lat="47.29107" lon="-1.89508">
        <ele>2.540649</ele>
        <time>2009-11-04T09:39:30Z</time>
      </trkpt>
      <trkpt lat="47.29118" lon="-1.89503">
        <ele>2.540649</ele>
        <time>2009-11-04T09:39:35Z</time>
      </trkpt>
      <trkpt lat="47.29137" lon="-1.89493">
        <ele>2.540649</ele>
        <time>2009-11-04T09:39:41Z</time>
      </trkpt>
      <trkpt lat="47.2916" lon="-1.89482">
        <ele>2.540649</ele>
        <time>2009-11-04T09:39:48Z</time>
      </trkpt>
      <trkpt lat="47.29195" lon="-1.89465">
        <ele>2.540649</ele>
        <time>2009-11-04T09:39:58Z</time>
      </trkpt>
      <trkpt lat="47.29219" lon="-1.8945">
        <ele>2.540649</ele>
        <time>2009-11-04T09:40:05Z</time>
      </trkpt>
      <trkpt lat="47.29251" lon="-1.89435">
        <ele>2.540649</ele>
        <time>2009-11-04T09:40:14Z</time>
      </trkpt>
      <trkpt lat="47.29264" lon="-1.89439">
        <ele>2.540649</ele>
        <time>2009-11-04T09:40:18Z</time>
      </trkpt>
      <trkpt lat="47.29286" lon="-1.89465">
        <ele>3.02124</ele>
        <time>2009-11-04T09:40:25Z</time>
      </trkpt>
      <trkpt lat="47.29318" lon="-1.895">
        <ele>3.02124</ele>
        <time>2009-11-04T09:40:34Z</time>
      </trkpt>
      <trkpt lat="47.2935" lon="-1.89536">
        <ele>2.540649</ele>
        <time>2009-11-04T09:40:43Z</time>
      </trkpt>
      <trkpt lat="47.29383" lon="-1.89573">
        <ele>2.540649</ele>
        <time>2009-11-04T09:40:52Z</time>
      </trkpt>
      <trkpt lat="47.29414" lon="-1.89608">
        <ele>2.540649</ele>
        <time>2009-11-04T09:41:01Z</time>
      </trkpt>
      <trkpt lat="47.29444" lon="-1.89641">
        <ele>3.02124</ele>
        <time>2009-11-04T09:41:10Z</time>
      </trkpt>
      <trkpt lat="47.29452" lon="-1.89651">
        <ele>3.02124</ele>
        <time>2009-11-04T09:41:13Z</time>
      </trkpt>
      <trkpt lat="47.29445" lon="-1.89675">
        <ele>3.02124</ele>
        <time>2009-11-04T09:41:18Z</time>
      </trkpt>
      <trkpt lat="47.2944" lon="-1.89702">
        <ele>3.501953</ele>
        <time>2009-11-04T09:41:23Z</time>
      </trkpt>
      <trkpt lat="47.29439" lon="-1.89728">
        <ele>3.02124</ele>
        <time>2009-11-04T09:41:27Z</time>
      </trkpt>
      <trkpt lat="47.29443" lon="-1.89781">
        <ele>3.501953</ele>
        <time>2009-11-04T09:41:35Z</time>
      </trkpt>
      <trkpt lat="47.2945" lon="-1.89804">
        <ele>3.501953</ele>
        <time>2009-11-04T09:41:39Z</time>
      </trkpt>
      <trkpt lat="47.29468" lon="-1.89825">
        <ele>3.501953</ele>
        <time>2009-11-04T09:41:44Z</time>
      </trkpt>
      <trkpt lat="47.29477" lon="-1.89827">
        <ele>3.02124</ele>
        <time>2009-11-04T09:41:46Z</time>
      </trkpt>
      <trkpt lat="47.29523" lon="-1.89826">
        <ele>3.982666</ele>
        <time>2009-11-04T09:41:56Z</time>
      </trkpt>
      <trkpt lat="47.29548" lon="-1.89823">
        <ele>3.501953</ele>
        <time>2009-11-04T09:42:02Z</time>
      </trkpt>
      <trkpt lat="47.29557" lon="-1.89842">
        <ele>3.02124</ele>
        <time>2009-11-04T09:42:06Z</time>
      </trkpt>
      <trkpt lat="47.29559" lon="-1.89849">
        <ele>2.540649</ele>
        <time>2009-11-04T09:42:07Z</time>
      </trkpt>
      <trkpt lat="47.29565" lon="-1.8992">
        <ele>3.02124</ele>
        <time>2009-11-04T09:42:17Z</time>
      </trkpt>
      <trkpt lat="47.2957" lon="-1.89941">
        <ele>2.540649</ele>
        <time>2009-11-04T09:42:20Z</time>
      </trkpt>
      <trkpt lat="47.29583" lon="-1.89969">
        <ele>2.540649</ele>
        <time>2009-11-04T09:42:27Z</time>
      </trkpt>
      <trkpt lat="47.29583" lon="-1.89969">
        <ele>2.540649</ele>
        <time>2009-11-04T09:42:37Z</time>
      </trkpt>
      <trkpt lat="47.29586" lon="-1.89977">
        <ele>3.02124</ele>
        <time>2009-11-04T09:43:21Z</time>
      </trkpt>
      <trkpt lat="47.29597" lon="-1.89995">
        <ele>2.060059</ele>
        <time>2009-11-04T09:43:27Z</time>
      </trkpt>
      <trkpt lat="47.29613" lon="-1.90022">
        <ele>3.02124</ele>
        <time>2009-11-04T09:43:32Z</time>
      </trkpt>
      <trkpt lat="47.29639" lon="-1.90064">
        <ele>2.540649</ele>
        <time>2009-11-04T09:43:40Z</time>
      </trkpt>
      <trkpt lat="47.29667" lon="-1.90102">
        <ele>2.540649</ele>
        <time>2009-11-04T09:43:48Z</time>
      </trkpt>
      <trkpt lat="47.29676" lon="-1.9011">
        <ele>3.02124</ele>
        <time>2009-11-04T09:43:50Z</time>
      </trkpt>
      <trkpt lat="47.29699" lon="-1.90116">
        <ele>2.540649</ele>
        <time>2009-11-04T09:43:55Z</time>
      </trkpt>
      <trkpt lat="47.29714" lon="-1.90117">
        <ele>2.540649</ele>
        <time>2009-11-04T09:43:58Z</time>
      </trkpt>
      <trkpt lat="47.29742" lon="-1.90135">
        <ele>3.02124</ele>
        <time>2009-11-04T09:44:04Z</time>
      </trkpt>
      <trkpt lat="47.2978" lon="-1.90169">
        <ele>2.540649</ele>
        <time>2009-11-04T09:44:13Z</time>
      </trkpt>
      <trkpt lat="47.29815" lon="-1.90192">
        <ele>2.540649</ele>
        <time>2009-11-04T09:44:21Z</time>
      </trkpt>
      <trkpt lat="47.2984" lon="-1.90215">
        <ele>2.540649</ele>
        <time>2009-11-04T09:44:27Z</time>
      </trkpt>
      <trkpt lat="47.29864" lon="-1.90239">
        <ele>2.060059</ele>
        <time>2009-11-04T09:44:33Z</time>
      </trkpt>
      <trkpt lat="47.299" lon="-1.90256">
        <ele>2.540649</ele>
        <time>2009-11-04T09:44:41Z</time>
      </trkpt>
      <trkpt lat="47.29905" lon="-1.90259">
        <ele>2.540649</ele>
        <time>2009-11-04T09:44:42Z</time>
      </trkpt>
      <trkpt lat="47.29933" lon="-1.9029">
        <ele>2.060059</ele>
        <time>2009-11-04T09:44:49Z</time>
      </trkpt>
      <trkpt lat="47.29937" lon="-1.90296">
        <ele>2.540649</ele>
        <time>2009-11-04T09:44:50Z</time>
      </trkpt>
      <trkpt lat="47.29946" lon="-1.90314">
        <ele>2.060059</ele>
        <time>2009-11-04T09:44:53Z</time>
      </trkpt>
      <trkpt lat="47.29951" lon="-1.90327">
        <ele>1.579346</ele>
        <time>2009-11-04T09:44:55Z</time>
      </trkpt>
      <trkpt lat="47.29965" lon="-1.90348">
        <ele>1.579346</ele>
        <time>2009-11-04T09:44:59Z</time>
      </trkpt>
      <trkpt lat="47.29992" lon="-1.90399">
        <ele>2.060059</ele>
        <time>2009-11-04T09:45:08Z</time>
      </trkpt>
      <trkpt lat="47.30011" lon="-1.90434">
        <ele>2.060059</ele>
        <time>2009-11-04T09:45:14Z</time>
      </trkpt>
      <trkpt lat="47.30014" lon="-1.90439">
        <ele>1.579346</ele>
        <time>2009-11-04T09:45:15Z</time>
      </trkpt>
      <trkpt lat="47.30036" lon="-1.90483">
        <ele>1.579346</ele>
        <time>2009-11-04T09:45:23Z</time>
      </trkpt>
      <trkpt lat="47.30057" lon="-1.90511">
        <ele>2.060059</ele>
        <time>2009-11-04T09:45:29Z</time>
      </trkpt>
      <trkpt lat="47.30083" lon="-1.9054">
        <ele>2.060059</ele>
        <time>2009-11-04T09:45:36Z</time>
      </trkpt>
      <trkpt lat="47.30096" lon="-1.90555">
        <ele>2.060059</ele>
        <time>2009-11-04T09:45:41Z</time>
      </trkpt>
      <trkpt lat="47.30097" lon="-1.9056">
        <ele>3.02124</ele>
        <time>2009-11-04T09:45:42Z</time>
      </trkpt>
      <trkpt lat="47.30097" lon="-1.90585">
        <ele>2.540649</ele>
        <time>2009-11-04T09:45:46Z</time>
      </trkpt>
      <trkpt lat="47.30104" lon="-1.90626">
        <ele>1.098633</ele>
        <time>2009-11-04T09:45:52Z</time>
      </trkpt>
      <trkpt lat="47.30111" lon="-1.90643">
        <ele>1.098633</ele>
        <time>2009-11-04T09:45:55Z</time>
      </trkpt>
      <trkpt lat="47.30117" lon="-1.90653">
        <ele>1.098633</ele>
        <time>2009-11-04T09:45:57Z</time>
      </trkpt>
      <trkpt lat="47.30117" lon="-1.90674">
        <ele>1.579346</ele>
        <time>2009-11-04T09:46:01Z</time>
      </trkpt>
      <trkpt lat="47.30113" lon="-1.90677">
        <ele>2.060059</ele>
        <time>2009-11-04T09:46:02Z</time>
      </trkpt>
      <trkpt lat="47.30105" lon="-1.90682">
        <ele>3.02124</ele>
        <time>2009-11-04T09:46:04Z</time>
      </trkpt>
      <trkpt lat="47.30058" lon="-1.90702">
        <ele>2.540649</ele>
        <time>2009-11-04T09:46:14Z</time>
      </trkpt>
      <trkpt lat="47.30017" lon="-1.90721">
        <ele>3.02124</ele>
        <time>2009-11-04T09:46:23Z</time>
      </trkpt>
      <trkpt lat="47.29967" lon="-1.90745">
        <ele>2.540649</ele>
        <time>2009-11-04T09:46:34Z</time>
      </trkpt>
      <trkpt lat="47.2993" lon="-1.90762">
        <ele>2.540649</ele>
        <time>2009-11-04T09:46:42Z</time>
      </trkpt>
      <trkpt lat="47.29889" lon="-1.90781">
        <ele>2.060059</ele>
        <time>2009-11-04T09:46:51Z</time>
      </trkpt>
      <trkpt lat="47.29845" lon="-1.90801">
        <ele>2.060059</ele>
        <time>2009-11-04T09:47:01Z</time>
      </trkpt>
      <trkpt lat="47.29804" lon="-1.90821">
        <ele>2.060059</ele>
        <time>2009-11-04T09:47:11Z</time>
      </trkpt>
      <trkpt lat="47.29783" lon="-1.90831">
        <ele>2.060059</ele>
        <time>2009-11-04T09:47:17Z</time>
      </trkpt>
      <trkpt lat="47.29756" lon="-1.90844">
        <ele>1.579346</ele>
        <time>2009-11-04T09:47:24Z</time>
      </trkpt>
      <trkpt lat="47.29718" lon="-1.90861">
        <ele>1.098633</ele>
        <time>2009-11-04T09:47:33Z</time>
      </trkpt>
      <trkpt lat="47.2971" lon="-1.90866">
        <ele>2.060059</ele>
        <time>2009-11-04T09:47:35Z</time>
      </trkpt>
      <trkpt lat="47.29669" lon="-1.90885">
        <ele>3.02124</ele>
        <time>2009-11-04T09:47:45Z</time>
      </trkpt>
      <trkpt lat="47.29623" lon="-1.90905">
        <ele>2.060059</ele>
        <time>2009-11-04T09:47:56Z</time>
      </trkpt>
      <trkpt lat="47.29579" lon="-1.90924">
        <ele>2.060059</ele>
        <time>2009-11-04T09:48:06Z</time>
      </trkpt>
      <trkpt lat="47.29529" lon="-1.90943">
        <ele>2.060059</ele>
        <time>2009-11-04T09:48:17Z</time>
      </trkpt>
      <trkpt lat="47.2949" lon="-1.90958">
        <ele>2.060059</ele>
        <time>2009-11-04T09:48:26Z</time>
      </trkpt>
      <trkpt lat="47.29476" lon="-1.90972">
        <ele>1.579346</ele>
        <time>2009-11-04T09:48:31Z</time>
      </trkpt>
      <trkpt lat="47.2948" lon="-1.91003">
        <ele>1.098633</ele>
        <time>2009-11-04T09:48:37Z</time>
      </trkpt>
      <trkpt lat="47.29484" lon="-1.91014">
        <ele>1.579346</ele>
        <time>2009-11-04T09:48:39Z</time>
      </trkpt>
      <trkpt lat="47.29501" lon="-1.91064">
        <ele>0.618042</ele>
        <time>2009-11-04T09:48:48Z</time>
      </trkpt>
      <trkpt lat="47.29512" lon="-1.91098">
        <ele>0.618042</ele>
        <time>2009-11-04T09:48:54Z</time>
      </trkpt>
      <trkpt lat="47.29526" lon="-1.91142">
        <ele>1.098633</ele>
        <time>2009-11-04T09:49:02Z</time>
      </trkpt>
      <trkpt lat="47.29544" lon="-1.91198">
        <ele>1.098633</ele>
        <time>2009-11-04T09:49:11Z</time>
      </trkpt>
      <trkpt lat="47.29558" lon="-1.91239">
        <ele>1.098633</ele>
        <time>2009-11-04T09:49:18Z</time>
      </trkpt>
      <trkpt lat="47.29573" lon="-1.91284">
        <ele>0.618042</ele>
        <time>2009-11-04T09:49:26Z</time>
      </trkpt>
      <trkpt lat="47.29587" lon="-1.91321">
        <ele>1.098633</ele>
        <time>2009-11-04T09:49:33Z</time>
      </trkpt>
      <trkpt lat="47.29605" lon="-1.91373">
        <ele>0.618042</ele>
        <time>2009-11-04T09:49:43Z</time>
      </trkpt>
      <trkpt lat="47.29621" lon="-1.91415">
        <ele>1.098633</ele>
        <time>2009-11-04T09:49:51Z</time>
      </trkpt>
      <trkpt lat="47.29636" lon="-1.91462">
        <ele>1.098633</ele>
        <time>2009-11-04T09:49:59Z</time>
      </trkpt>
      <trkpt lat="47.29659" lon="-1.91526">
        <ele>1.579346</ele>
        <time>2009-11-04T09:50:10Z</time>
      </trkpt>
      <trkpt lat="47.29678" lon="-1.91586">
        <ele>2.540649</ele>
        <time>2009-11-04T09:50:20Z</time>
      </trkpt>
      <trkpt lat="47.29691" lon="-1.91637">
        <ele>1.098633</ele>
        <time>2009-11-04T09:50:28Z</time>
      </trkpt>
      <trkpt lat="47.29706" lon="-1.91698">
        <ele>1.098633</ele>
        <time>2009-11-04T09:50:37Z</time>
      </trkpt>
      <trkpt lat="47.2972" lon="-1.91756">
        <ele>1.579346</ele>
        <time>2009-11-04T09:50:46Z</time>
      </trkpt>
      <trkpt lat="47.2973" lon="-1.91806">
        <ele>1.579346</ele>
        <time>2009-11-04T09:50:54Z</time>
      </trkpt>
      <trkpt lat="47.29734" lon="-1.91835">
        <ele>2.540649</ele>
        <time>2009-11-04T09:51:00Z</time>
      </trkpt>
      <trkpt lat="47.29744" lon="-1.91863">
        <ele>2.540649</ele>
        <time>2009-11-04T09:51:06Z</time>
      </trkpt>
      <trkpt lat="47.29753" lon="-1.91882">
        <ele>1.098633</ele>
        <time>2009-11-04T09:51:11Z</time>
      </trkpt>
      <trkpt lat="47.29767" lon="-1.9191">
        <ele>3.02124</ele>
        <time>2009-11-04T09:51:20Z</time>
      </trkpt>
      <trkpt lat="47.2977" lon="-1.91918">
        <ele>2.540649</ele>
        <time>2009-11-04T09:51:23Z</time>
      </trkpt>
      <trkpt lat="47.29765" lon="-1.91934">
        <ele>2.060059</ele>
        <time>2009-11-04T09:51:30Z</time>
      </trkpt>
      <trkpt lat="47.29765" lon="-1.91953">
        <ele>0.137451</ele>
        <time>2009-11-04T09:51:34Z</time>
      </trkpt>
      <trkpt lat="47.29769" lon="-1.91994">
        <ele>1.579346</ele>
        <time>2009-11-04T09:51:41Z</time>
      </trkpt>
      <trkpt lat="47.29776" lon="-1.92042">
        <ele>2.060059</ele>
        <time>2009-11-04T09:51:49Z</time>
      </trkpt>
      <trkpt lat="47.29791" lon="-1.92093">
        <ele>1.579346</ele>
        <time>2009-11-04T09:51:57Z</time>
      </trkpt>
      <trkpt lat="47.29814" lon="-1.92155">
        <ele>1.579346</ele>
        <time>2009-11-04T09:52:07Z</time>
      </trkpt>
      <trkpt lat="47.29818" lon="-1.92168">
        <ele>2.060059</ele>
        <time>2009-11-04T09:52:09Z</time>
      </trkpt>
      <trkpt lat="47.29844" lon="-1.92213">
        <ele>2.060059</ele>
        <time>2009-11-04T09:52:17Z</time>
      </trkpt>
      <trkpt lat="47.29877" lon="-1.92258">
        <ele>1.579346</ele>
        <time>2009-11-04T09:52:26Z</time>
      </trkpt>
      <trkpt lat="47.29884" lon="-1.92267">
        <ele>2.060059</ele>
        <time>2009-11-04T09:52:28Z</time>
      </trkpt>
      <trkpt lat="47.2991" lon="-1.9231">
        <ele>2.060059</ele>
        <time>2009-11-04T09:52:37Z</time>
      </trkpt>
      <trkpt lat="47.29936" lon="-1.92349">
        <ele>2.060059</ele>
        <time>2009-11-04T09:52:45Z</time>
      </trkpt>
      <trkpt lat="47.29964" lon="-1.92393">
        <ele>2.060059</ele>
        <time>2009-11-04T09:52:54Z</time>
      </trkpt>
      <trkpt lat="47.2998" lon="-1.9242">
        <ele>2.540649</ele>
        <time>2009-11-04T09:53:00Z</time>
      </trkpt>
      <trkpt lat="47.29997" lon="-1.92458">
        <ele>2.540649</ele>
        <time>2009-11-04T09:53:07Z</time>
      </trkpt>
      <trkpt lat="47.30009" lon="-1.92486">
        <ele>1.579346</ele>
        <time>2009-11-04T09:53:12Z</time>
      </trkpt>
      <trkpt lat="47.30027" lon="-1.925">
        <ele>1.098633</ele>
        <time>2009-11-04T09:53:17Z</time>
      </trkpt>
      <trkpt lat="47.30068" lon="-1.92496">
        <ele>1.579346</ele>
        <time>2009-11-04T09:53:26Z</time>
      </trkpt>
      <trkpt lat="47.301" lon="-1.92493">
        <ele>1.098633</ele>
        <time>2009-11-04T09:53:33Z</time>
      </trkpt>
      <trkpt lat="47.30121" lon="-1.92502">
        <ele>0.618042</ele>
        <time>2009-11-04T09:53:38Z</time>
      </trkpt>
      <trkpt lat="47.30154" lon="-1.9253">
        <ele>1.579346</ele>
        <time>2009-11-04T09:53:47Z</time>
      </trkpt>
      <trkpt lat="47.30182" lon="-1.92558">
        <ele>1.098633</ele>
        <time>2009-11-04T09:53:55Z</time>
      </trkpt>
      <trkpt lat="47.30211" lon="-1.92592">
        <ele>1.098633</ele>
        <time>2009-11-04T09:54:04Z</time>
      </trkpt>
      <trkpt lat="47.30231" lon="-1.92629">
        <ele>0.618042</ele>
        <time>2009-11-04T09:54:12Z</time>
      </trkpt>
      <trkpt lat="47.30251" lon="-1.92666">
        <ele>1.098633</ele>
        <time>2009-11-04T09:54:20Z</time>
      </trkpt>
      <trkpt lat="47.30276" lon="-1.92711">
        <ele>1.579346</ele>
        <time>2009-11-04T09:54:29Z</time>
      </trkpt>
      <trkpt lat="47.30281" lon="-1.9272">
        <ele>0.137451</ele>
        <time>2009-11-04T09:54:31Z</time>
      </trkpt>
      <trkpt lat="47.30302" lon="-1.92739">
        <ele>1.098633</ele>
        <time>2009-11-04T09:54:37Z</time>
      </trkpt>
      <trkpt lat="47.3032" lon="-1.92751">
        <ele>0.618042</ele>
        <time>2009-11-04T09:54:42Z</time>
      </trkpt>
      <trkpt lat="47.30362" lon="-1.92778">
        <ele>0.618042</ele>
        <time>2009-11-04T09:54:53Z</time>
      </trkpt>
      <trkpt lat="47.30396" lon="-1.928">
        <ele>0.618042</ele>
        <time>2009-11-04T09:55:02Z</time>
      </trkpt>
      <trkpt lat="47.30422" lon="-1.92819">
        <ele>0.618042</ele>
        <time>2009-11-04T09:55:09Z</time>
      </trkpt>
      <trkpt lat="47.3044" lon="-1.9285">
        <ele>0.618042</ele>
        <time>2009-11-04T09:55:16Z</time>
      </trkpt>
      <trkpt lat="47.30462" lon="-1.92893">
        <ele>1.098633</ele>
        <time>2009-11-04T09:55:25Z</time>
      </trkpt>
      <trkpt lat="47.30491" lon="-1.92948">
        <ele>1.098633</ele>
        <time>2009-11-04T09:55:36Z</time>
      </trkpt>
      <trkpt lat="47.30504" lon="-1.92973">
        <ele>1.098633</ele>
        <time>2009-11-04T09:55:42Z</time>
      </trkpt>
      <trkpt lat="47.30514" lon="-1.92999">
        <ele>0.618042</ele>
        <time>2009-11-04T09:55:48Z</time>
      </trkpt>
      <trkpt lat="47.30522" lon="-1.9303">
        <ele>1.579346</ele>
        <time>2009-11-04T09:55:54Z</time>
      </trkpt>
      <trkpt lat="47.30531" lon="-1.9307">
        <ele>1.098633</ele>
        <time>2009-11-04T09:56:01Z</time>
      </trkpt>
      <trkpt lat="47.30547" lon="-1.9314">
        <ele>1.579346</ele>
        <time>2009-11-04T09:56:13Z</time>
      </trkpt>
      <trkpt lat="47.30554" lon="-1.9317">
        <ele>1.098633</ele>
        <time>2009-11-04T09:56:19Z</time>
      </trkpt>
      <trkpt lat="47.30559" lon="-1.93193">
        <ele>0.618042</ele>
        <time>2009-11-04T09:56:25Z</time>
      </trkpt>
      <trkpt lat="47.30564" lon="-1.93216">
        <ele>1.098633</ele>
        <time>2009-11-04T09:56:31Z</time>
      </trkpt>
      <trkpt lat="47.30568" lon="-1.9323">
        <ele>0.618042</ele>
        <time>2009-11-04T09:56:37Z</time>
      </trkpt>
      <trkpt lat="47.30578" lon="-1.93228">
        <ele>0.137451</ele>
        <time>2009-11-04T09:56:42Z</time>
      </trkpt>
      <trkpt lat="47.30597" lon="-1.93228">
        <ele>0.618042</ele>
        <time>2009-11-04T09:56:48Z</time>
      </trkpt>
      <trkpt lat="47.30627" lon="-1.93221">
        <ele>0.618042</ele>
        <time>2009-11-04T09:56:56Z</time>
      </trkpt>
      <trkpt lat="47.3065" lon="-1.93217">
        <ele>0.137451</ele>
        <time>2009-11-04T09:57:02Z</time>
      </trkpt>
      <trkpt lat="47.30695" lon="-1.93206">
        <ele>1.098633</ele>
        <time>2009-11-04T09:57:14Z</time>
      </trkpt>
      <trkpt lat="47.30736" lon="-1.93197">
        <ele>0.618042</ele>
        <time>2009-11-04T09:57:25Z</time>
      </trkpt>
      <trkpt lat="47.30771" lon="-1.93189">
        <ele>1.098633</ele>
        <time>2009-11-04T09:57:34Z</time>
      </trkpt>
      <trkpt lat="47.30809" lon="-1.9318">
        <ele>0.618042</ele>
        <time>2009-11-04T09:57:44Z</time>
      </trkpt>
      <trkpt lat="47.30836" lon="-1.93174">
        <ele>1.098633</ele>
        <time>2009-11-04T09:57:51Z</time>
      </trkpt>
      <trkpt lat="47.30864" lon="-1.93168">
        <ele>1.098633</ele>
        <time>2009-11-04T09:57:58Z</time>
      </trkpt>
      <trkpt lat="47.30896" lon="-1.9316">
        <ele>0.618042</ele>
        <time>2009-11-04T09:58:06Z</time>
      </trkpt>
      <trkpt lat="47.3091" lon="-1.93155">
        <ele>1.579346</ele>
        <time>2009-11-04T09:58:11Z</time>
      </trkpt>
      <trkpt lat="47.30927" lon="-1.93146">
        <ele>1.579346</ele>
        <time>2009-11-04T09:58:18Z</time>
      </trkpt>
      <trkpt lat="47.30938" lon="-1.93127">
        <ele>1.098633</ele>
        <time>2009-11-04T09:58:23Z</time>
      </trkpt>
      <trkpt lat="47.30954" lon="-1.93085">
        <ele>1.098633</ele>
        <time>2009-11-04T09:58:31Z</time>
      </trkpt>
      <trkpt lat="47.30978" lon="-1.93023">
        <ele>1.098633</ele>
        <time>2009-11-04T09:58:41Z</time>
      </trkpt>
      <trkpt lat="47.30995" lon="-1.92982">
        <ele>1.579346</ele>
        <time>2009-11-04T09:58:48Z</time>
      </trkpt>
      <trkpt lat="47.31015" lon="-1.92926">
        <ele>1.098633</ele>
        <time>2009-11-04T09:58:57Z</time>
      </trkpt>
      <trkpt lat="47.3103" lon="-1.92871">
        <ele>1.098633</ele>
        <time>2009-11-04T09:59:05Z</time>
      </trkpt>
      <trkpt lat="47.31035" lon="-1.92858">
        <ele>1.579346</ele>
        <time>2009-11-04T09:59:07Z</time>
      </trkpt>
      <trkpt lat="47.31052" lon="-1.92805">
        <ele>1.579346</ele>
        <time>2009-11-04T09:59:14Z</time>
      </trkpt>
      <trkpt lat="47.31056" lon="-1.9279">
        <ele>1.579346</ele>
        <time>2009-11-04T09:59:16Z</time>
      </trkpt>
      <trkpt lat="47.31074" lon="-1.92767">
        <ele>1.579346</ele>
        <time>2009-11-04T09:59:21Z</time>
      </trkpt>
      <trkpt lat="47.31079" lon="-1.92766">
        <ele>1.098633</ele>
        <time>2009-11-04T09:59:22Z</time>
      </trkpt>
      <trkpt lat="47.31122" lon="-1.92766">
        <ele>1.098633</ele>
        <time>2009-11-04T09:59:30Z</time>
      </trkpt>
      <trkpt lat="47.31137" lon="-1.92762">
        <ele>1.579346</ele>
        <time>2009-11-04T09:59:33Z</time>
      </trkpt>
      <trkpt lat="47.31159" lon="-1.92744">
        <ele>1.098633</ele>
        <time>2009-11-04T09:59:38Z</time>
      </trkpt>
      <trkpt lat="47.31169" lon="-1.92727">
        <ele>1.579346</ele>
        <time>2009-11-04T09:59:41Z</time>
      </trkpt>
      <trkpt lat="47.31175" lon="-1.92714">
        <ele>1.098633</ele>
        <time>2009-11-04T09:59:43Z</time>
      </trkpt>
      <trkpt lat="47.31181" lon="-1.92684">
        <ele>1.098633</ele>
        <time>2009-11-04T09:59:47Z</time>
      </trkpt>
      <trkpt lat="47.31181" lon="-1.92632">
        <ele>1.579346</ele>
        <time>2009-11-04T09:59:54Z</time>
      </trkpt>
      <trkpt lat="47.3118" lon="-1.92589">
        <ele>1.579346</ele>
        <time>2009-11-04T10:00:01Z</time>
      </trkpt>
      <trkpt lat="47.3118" lon="-1.92572">
        <ele>1.579346</ele>
        <time>2009-11-04T10:00:06Z</time>
      </trkpt>
      <trkpt lat="47.31179" lon="-1.92572">
        <ele>1.579346</ele>
        <time>2009-11-04T10:00:13Z</time>
      </trkpt>
      <trkpt lat="47.31181" lon="-1.92569">
        <ele>2.060059</ele>
        <time>2009-11-04T10:00:41Z</time>
      </trkpt>
      <trkpt lat="47.31182" lon="-1.92567">
        <ele>2.060059</ele>
        <time>2009-11-04T10:00:52Z</time>
      </trkpt>
      <trkpt lat="47.31181" lon="-1.92566">
        <ele>2.060059</ele>
        <time>2009-11-04T10:00:53Z</time>
      </trkpt>
      <trkpt lat="47.31174" lon="-1.92556">
        <ele>2.540649</ele>
        <time>2009-11-04T10:00:58Z</time>
      </trkpt>
      <trkpt lat="47.31162" lon="-1.9253">
        <ele>2.060059</ele>
        <time>2009-11-04T10:01:05Z</time>
      </trkpt>
      <trkpt lat="47.31147" lon="-1.92505">
        <ele>2.060059</ele>
        <time>2009-11-04T10:01:10Z</time>
      </trkpt>
      <trkpt lat="47.31131" lon="-1.92473">
        <ele>2.060059</ele>
        <time>2009-11-04T10:01:16Z</time>
      </trkpt>
      <trkpt lat="47.31126" lon="-1.92445">
        <ele>1.098633</ele>
        <time>2009-11-04T10:01:21Z</time>
      </trkpt>
      <trkpt lat="47.3113" lon="-1.92427">
        <ele>1.579346</ele>
        <time>2009-11-04T10:01:24Z</time>
      </trkpt>
      <trkpt lat="47.31144" lon="-1.92384">
        <ele>0.618042</ele>
        <time>2009-11-04T10:01:32Z</time>
      </trkpt>
      <trkpt lat="47.31151" lon="-1.9236">
        <ele>2.060059</ele>
        <time>2009-11-04T10:01:37Z</time>
      </trkpt>
      <trkpt lat="47.31165" lon="-1.92327">
        <ele>2.060059</ele>
        <time>2009-11-04T10:01:43Z</time>
      </trkpt>
      <trkpt lat="47.31179" lon="-1.92293">
        <ele>1.579346</ele>
        <time>2009-11-04T10:01:50Z</time>
      </trkpt>
      <trkpt lat="47.3119" lon="-1.9227">
        <ele>1.098633</ele>
        <time>2009-11-04T10:01:55Z</time>
      </trkpt>
      <trkpt lat="47.31203" lon="-1.92239">
        <ele>1.098633</ele>
        <time>2009-11-04T10:02:01Z</time>
      </trkpt>
      <trkpt lat="47.31204" lon="-1.92234">
        <ele>2.060059</ele>
        <time>2009-11-04T10:02:02Z</time>
      </trkpt>
      <trkpt lat="47.31216" lon="-1.92203">
        <ele>1.098633</ele>
        <time>2009-11-04T10:02:08Z</time>
      </trkpt>
      <trkpt lat="47.31222" lon="-1.92182">
        <ele>1.098633</ele>
        <time>2009-11-04T10:02:12Z</time>
      </trkpt>
      <trkpt lat="47.31231" lon="-1.92147">
        <ele>1.098633</ele>
        <time>2009-11-04T10:02:18Z</time>
      </trkpt>
      <trkpt lat="47.31241" lon="-1.92115">
        <ele>1.579346</ele>
        <time>2009-11-04T10:02:24Z</time>
      </trkpt>
      <trkpt lat="47.3125" lon="-1.92087">
        <ele>2.060059</ele>
        <time>2009-11-04T10:02:29Z</time>
      </trkpt>
      <trkpt lat="47.31259" lon="-1.92063">
        <ele>1.098633</ele>
        <time>2009-11-04T10:02:34Z</time>
      </trkpt>
      <trkpt lat="47.31269" lon="-1.9204">
        <ele>1.579346</ele>
        <time>2009-11-04T10:02:39Z</time>
      </trkpt>
      <trkpt lat="47.3128" lon="-1.92017">
        <ele>2.060059</ele>
        <time>2009-11-04T10:02:44Z</time>
      </trkpt>
      <trkpt lat="47.31299" lon="-1.91979">
        <ele>2.540649</ele>
        <time>2009-11-04T10:02:52Z</time>
      </trkpt>
      <trkpt lat="47.3131" lon="-1.91957">
        <ele>3.02124</ele>
        <time>2009-11-04T10:02:58Z</time>
      </trkpt>
      <trkpt lat="47.31317" lon="-1.91951">
        <ele>3.02124</ele>
        <time>2009-11-04T10:03:03Z</time>
      </trkpt>
      <trkpt lat="47.31321" lon="-1.91951">
        <ele>3.02124</ele>
        <time>2009-11-04T10:03:17Z</time>
      </trkpt>
      <trkpt lat="47.31325" lon="-1.91962">
        <ele>3.02124</ele>
        <time>2009-11-04T10:03:22Z</time>
      </trkpt>
      <trkpt lat="47.31337" lon="-1.91984">
        <ele>2.540649</ele>
        <time>2009-11-04T10:03:28Z</time>
      </trkpt>
      <trkpt lat="47.31341" lon="-1.91985">
        <ele>2.540649</ele>
        <time>2009-11-04T10:03:29Z</time>
      </trkpt>
      <trkpt lat="47.31365" lon="-1.91982">
        <ele>3.02124</ele>
        <time>2009-11-04T10:03:35Z</time>
      </trkpt>
      <trkpt lat="47.31381" lon="-1.91984">
        <ele>3.02124</ele>
        <time>2009-11-04T10:03:39Z</time>
      </trkpt>
      <trkpt lat="47.31392" lon="-1.92002">
        <ele>3.501953</ele>
        <time>2009-11-04T10:03:43Z</time>
      </trkpt>
      <trkpt lat="47.31411" lon="-1.92042">
        <ele>4.943848</ele>
        <time>2009-11-04T10:03:51Z</time>
      </trkpt>
      <trkpt lat="47.3142" lon="-1.92064">
        <ele>6.385864</ele>
        <time>2009-11-04T10:03:55Z</time>
      </trkpt>
      <trkpt lat="47.31428" lon="-1.92087">
        <ele>4.943848</ele>
        <time>2009-11-04T10:03:59Z</time>
      </trkpt>
      <trkpt lat="47.3144" lon="-1.92139">
        <ele>3.982666</ele>
        <time>2009-11-04T10:04:07Z</time>
      </trkpt>
      <trkpt lat="47.31457" lon="-1.92199">
        <ele>3.501953</ele>
        <time>2009-11-04T10:04:15Z</time>
      </trkpt>
      <trkpt lat="47.31473" lon="-1.92251">
        <ele>2.060059</ele>
        <time>2009-11-04T10:04:22Z</time>
      </trkpt>
      <trkpt lat="47.31488" lon="-1.92297">
        <ele>1.098633</ele>
        <time>2009-11-04T10:04:29Z</time>
      </trkpt>
      <trkpt lat="47.315" lon="-1.92335">
        <ele>1.098633</ele>
        <time>2009-11-04T10:04:35Z</time>
      </trkpt>
      <trkpt lat="47.31507" lon="-1.92354">
        <ele>0.618042</ele>
        <time>2009-11-04T10:04:40Z</time>
      </trkpt>
      <trkpt lat="47.31508" lon="-1.92355">
        <ele>0.618042</ele>
        <time>2009-11-04T10:04:45Z</time>
      </trkpt>
      <trkpt lat="47.31509" lon="-1.92354">
        <ele>0.618042</ele>
        <time>2009-11-04T10:05:10Z</time>
      </trkpt>
      <trkpt lat="47.31508" lon="-1.92354">
        <ele>1.579346</ele>
        <time>2009-11-04T10:05:21Z</time>
      </trkpt>
      <trkpt lat="47.31502" lon="-1.92352">
        <ele>2.060059</ele>
        <time>2009-11-04T10:15:27Z</time>
      </trkpt>
      <trkpt lat="47.31502" lon="-1.92352">
        <ele>2.060059</ele>
        <time>2009-11-04T10:15:28Z</time>
      </trkpt>
      <trkpt lat="47.31502" lon="-1.92352">
        <ele>3.501953</ele>
        <time>2009-11-04T10:15:29Z</time>
      </trkpt>
      <trkpt lat="47.31511" lon="-1.92349">
        <ele>2.540649</ele>
        <time>2009-11-04T10:15:35Z</time>
      </trkpt>
      <trkpt lat="47.31524" lon="-1.9234">
        <ele>2.060059</ele>
        <time>2009-11-04T10:15:39Z</time>
      </trkpt>
      <trkpt lat="47.31557" lon="-1.92328">
        <ele>2.540649</ele>
        <time>2009-11-04T10:15:45Z</time>
      </trkpt>
      <trkpt lat="47.31584" lon="-1.92326">
        <ele>2.540649</ele>
        <time>2009-11-04T10:15:50Z</time>
      </trkpt>
      <trkpt lat="47.31634" lon="-1.92339">
        <ele>1.579346</ele>
        <time>2009-11-04T10:15:59Z</time>
      </trkpt>
      <trkpt lat="47.31695" lon="-1.92356">
        <ele>2.060059</ele>
        <time>2009-11-04T10:16:10Z</time>
      </trkpt>
      <trkpt lat="47.317" lon="-1.92356">
        <ele>2.060059</ele>
        <time>2009-11-04T10:16:11Z</time>
      </trkpt>
      <trkpt lat="47.31727" lon="-1.92346">
        <ele>2.540649</ele>
        <time>2009-11-04T10:16:17Z</time>
      </trkpt>
      <trkpt lat="47.31762" lon="-1.92312">
        <ele>3.501953</ele>
        <time>2009-11-04T10:16:25Z</time>
      </trkpt>
      <trkpt lat="47.31792" lon="-1.9228">
        <ele>3.982666</ele>
        <time>2009-11-04T10:16:32Z</time>
      </trkpt>
      <trkpt lat="47.31813" lon="-1.9226">
        <ele>5.424561</ele>
        <time>2009-11-04T10:16:37Z</time>
      </trkpt>
      <trkpt lat="47.31836" lon="-1.92234">
        <ele>6.866455</ele>
        <time>2009-11-04T10:16:43Z</time>
      </trkpt>
      <trkpt lat="47.31862" lon="-1.92206">
        <ele>7.347168</ele>
        <time>2009-11-04T10:16:51Z</time>
      </trkpt>
      <trkpt lat="47.31874" lon="-1.92198">
        <ele>7.347168</ele>
        <time>2009-11-04T10:16:56Z</time>
      </trkpt>
      <trkpt lat="47.31875" lon="-1.92198">
        <ele>7.347168</ele>
        <time>2009-11-04T10:16:58Z</time>
      </trkpt>
      <trkpt lat="47.31878" lon="-1.92208">
        <ele>7.827881</ele>
        <time>2009-11-04T10:17:02Z</time>
      </trkpt>
      <trkpt lat="47.31877" lon="-1.92246">
        <ele>6.866455</ele>
        <time>2009-11-04T10:17:09Z</time>
      </trkpt>
      <trkpt lat="47.31876" lon="-1.92296">
        <ele>6.385864</ele>
        <time>2009-11-04T10:17:16Z</time>
      </trkpt>
      <trkpt lat="47.31878" lon="-1.92371">
        <ele>5.424561</ele>
        <time>2009-11-04T10:17:25Z</time>
      </trkpt>
      <trkpt lat="47.31886" lon="-1.92448">
        <ele>5.424561</ele>
        <time>2009-11-04T10:17:34Z</time>
      </trkpt>
      <trkpt lat="47.31896" lon="-1.92531">
        <ele>4.943848</ele>
        <time>2009-11-04T10:17:43Z</time>
      </trkpt>
      <trkpt lat="47.31908" lon="-1.9263">
        <ele>3.501953</ele>
        <time>2009-11-04T10:17:54Z</time>
      </trkpt>
      <trkpt lat="47.31918" lon="-1.92715">
        <ele>3.982666</ele>
        <time>2009-11-04T10:18:04Z</time>
      </trkpt>
      <trkpt lat="47.31929" lon="-1.92804">
        <ele>4.463257</ele>
        <time>2009-11-04T10:18:15Z</time>
      </trkpt>
      <trkpt lat="47.31936" lon="-1.92878">
        <ele>4.943848</ele>
        <time>2009-11-04T10:18:24Z</time>
      </trkpt>
      <trkpt lat="47.31947" lon="-1.9297">
        <ele>4.943848</ele>
        <time>2009-11-04T10:18:35Z</time>
      </trkpt>
      <trkpt lat="47.31956" lon="-1.93043">
        <ele>4.463257</ele>
        <time>2009-11-04T10:18:44Z</time>
      </trkpt>
      <trkpt lat="47.31966" lon="-1.93124">
        <ele>4.943848</ele>
        <time>2009-11-04T10:18:54Z</time>
      </trkpt>
      <trkpt lat="47.31975" lon="-1.93197">
        <ele>4.943848</ele>
        <time>2009-11-04T10:19:03Z</time>
      </trkpt>
      <trkpt lat="47.31984" lon="-1.93272">
        <ele>5.905273</ele>
        <time>2009-11-04T10:19:12Z</time>
      </trkpt>
      <trkpt lat="47.31994" lon="-1.93359">
        <ele>5.424561</ele>
        <time>2009-11-04T10:19:22Z</time>
      </trkpt>
      <trkpt lat="47.32002" lon="-1.93425">
        <ele>5.905273</ele>
        <time>2009-11-04T10:19:30Z</time>
      </trkpt>
      <trkpt lat="47.32012" lon="-1.93518">
        <ele>6.866455</ele>
        <time>2009-11-04T10:19:41Z</time>
      </trkpt>
      <trkpt lat="47.32022" lon="-1.93607">
        <ele>8.789185</ele>
        <time>2009-11-04T10:19:52Z</time>
      </trkpt>
      <trkpt lat="47.32033" lon="-1.93688">
        <ele>9.75061</ele>
        <time>2009-11-04T10:20:02Z</time>
      </trkpt>
      <trkpt lat="47.32038" lon="-1.9373">
        <ele>9.75061</ele>
        <time>2009-11-04T10:20:08Z</time>
      </trkpt>
      <trkpt lat="47.32043" lon="-1.93769">
        <ele>9.269897</ele>
        <time>2009-11-04T10:20:15Z</time>
      </trkpt>
      <trkpt lat="47.32049" lon="-1.93835">
        <ele>9.269897</ele>
        <time>2009-11-04T10:20:25Z</time>
      </trkpt>
      <trkpt lat="47.32048" lon="-1.93871">
        <ele>9.75061</ele>
        <time>2009-11-04T10:20:31Z</time>
      </trkpt>
      <trkpt lat="47.32047" lon="-1.93882">
        <ele>10.2312</ele>
        <time>2009-11-04T10:20:33Z</time>
      </trkpt>
      <trkpt lat="47.32032" lon="-1.93926">
        <ele>9.269897</ele>
        <time>2009-11-04T10:20:40Z</time>
      </trkpt>
      <trkpt lat="47.32002" lon="-1.93972">
        <ele>9.269897</ele>
        <time>2009-11-04T10:20:48Z</time>
      </trkpt>
      <trkpt lat="47.31959" lon="-1.94024">
        <ele>8.789185</ele>
        <time>2009-11-04T10:20:58Z</time>
      </trkpt>
      <trkpt lat="47.3193" lon="-1.94058">
        <ele>8.789185</ele>
        <time>2009-11-04T10:21:05Z</time>
      </trkpt>
      <trkpt lat="47.31915" lon="-1.94078">
        <ele>8.789185</ele>
        <time>2009-11-04T10:21:11Z</time>
      </trkpt>
      <trkpt lat="47.31906" lon="-1.94088">
        <ele>8.789185</ele>
        <time>2009-11-04T10:21:17Z</time>
      </trkpt>
      <trkpt lat="47.31896" lon="-1.94102">
        <ele>8.308594</ele>
        <time>2009-11-04T10:21:21Z</time>
      </trkpt>
      <trkpt lat="47.31869" lon="-1.94133">
        <ele>7.827881</ele>
        <time>2009-11-04T10:21:28Z</time>
      </trkpt>
      <trkpt lat="47.31833" lon="-1.94179">
        <ele>7.827881</ele>
        <time>2009-11-04T10:21:37Z</time>
      </trkpt>
      <trkpt lat="47.31817" lon="-1.94198">
        <ele>7.827881</ele>
        <time>2009-11-04T10:21:42Z</time>
      </trkpt>
      <trkpt lat="47.31802" lon="-1.94218">
        <ele>6.866455</ele>
        <time>2009-11-04T10:21:47Z</time>
      </trkpt>
      <trkpt lat="47.31778" lon="-1.94247">
        <ele>6.866455</ele>
        <time>2009-11-04T10:21:52Z</time>
      </trkpt>
      <trkpt lat="47.31761" lon="-1.94269">
        <ele>6.385864</ele>
        <time>2009-11-04T10:21:56Z</time>
      </trkpt>
      <trkpt lat="47.31734" lon="-1.9428">
        <ele>6.385864</ele>
        <time>2009-11-04T10:22:01Z</time>
      </trkpt>
      <trkpt lat="47.31685" lon="-1.94293">
        <ele>5.905273</ele>
        <time>2009-11-04T10:22:09Z</time>
      </trkpt>
      <trkpt lat="47.31647" lon="-1.94294">
        <ele>5.424561</ele>
        <time>2009-11-04T10:22:15Z</time>
      </trkpt>
      <trkpt lat="47.31618" lon="-1.94283">
        <ele>5.424561</ele>
        <time>2009-11-04T10:22:20Z</time>
      </trkpt>
      <trkpt lat="47.31576" lon="-1.94265">
        <ele>4.943848</ele>
        <time>2009-11-04T10:22:27Z</time>
      </trkpt>
      <trkpt lat="47.31533" lon="-1.94247">
        <ele>5.905273</ele>
        <time>2009-11-04T10:22:34Z</time>
      </trkpt>
      <trkpt lat="47.315" lon="-1.94234">
        <ele>5.905273</ele>
        <time>2009-11-04T10:22:40Z</time>
      </trkpt>
      <trkpt lat="47.31449" lon="-1.94212">
        <ele>4.943848</ele>
        <time>2009-11-04T10:22:49Z</time>
      </trkpt>
      <trkpt lat="47.31443" lon="-1.94209">
        <ele>4.943848</ele>
        <time>2009-11-04T10:22:50Z</time>
      </trkpt>
      <trkpt lat="47.3142" lon="-1.94215">
        <ele>4.943848</ele>
        <time>2009-11-04T10:22:54Z</time>
      </trkpt>
      <trkpt lat="47.31377" lon="-1.94249">
        <ele>5.424561</ele>
        <time>2009-11-04T10:23:02Z</time>
      </trkpt>
      <trkpt lat="47.3133" lon="-1.94284">
        <ele>5.424561</ele>
        <time>2009-11-04T10:23:10Z</time>
      </trkpt>
      <trkpt lat="47.31266" lon="-1.9433">
        <ele>5.905273</ele>
        <time>2009-11-04T10:23:21Z</time>
      </trkpt>
      <trkpt lat="47.31234" lon="-1.94357">
        <ele>5.424561</ele>
        <time>2009-11-04T10:23:27Z</time>
      </trkpt>
      <trkpt lat="47.31194" lon="-1.94396">
        <ele>5.905273</ele>
        <time>2009-11-04T10:23:35Z</time>
      </trkpt>
      <trkpt lat="47.31159" lon="-1.94432">
        <ele>5.905273</ele>
        <time>2009-11-04T10:23:42Z</time>
      </trkpt>
      <trkpt lat="47.31115" lon="-1.9448">
        <ele>5.905273</ele>
        <time>2009-11-04T10:23:51Z</time>
      </trkpt>
      <trkpt lat="47.31068" lon="-1.94534">
        <ele>5.905273</ele>
        <time>2009-11-04T10:24:01Z</time>
      </trkpt>
      <trkpt lat="47.31064" lon="-1.9454">
        <ele>5.905273</ele>
        <time>2009-11-04T10:24:02Z</time>
      </trkpt>
      <trkpt lat="47.31054" lon="-1.94559">
        <ele>6.385864</ele>
        <time>2009-11-04T10:24:05Z</time>
      </trkpt>
      <trkpt lat="47.31047" lon="-1.94588">
        <ele>6.385864</ele>
        <time>2009-11-04T10:24:09Z</time>
      </trkpt>
      <trkpt lat="47.31048" lon="-1.94625">
        <ele>5.905273</ele>
        <time>2009-11-04T10:24:14Z</time>
      </trkpt>
      <trkpt lat="47.3105" lon="-1.94632">
        <ele>5.905273</ele>
        <time>2009-11-04T10:24:15Z</time>
      </trkpt>
      <trkpt lat="47.31058" lon="-1.94658">
        <ele>5.424561</ele>
        <time>2009-11-04T10:24:19Z</time>
      </trkpt>
      <trkpt lat="47.31069" lon="-1.94721">
        <ele>6.866455</ele>
        <time>2009-11-04T10:24:28Z</time>
      </trkpt>
      <trkpt lat="47.31075" lon="-1.94763">
        <ele>7.347168</ele>
        <time>2009-11-04T10:24:35Z</time>
      </trkpt>
      <trkpt lat="47.31079" lon="-1.94803">
        <ele>7.827881</ele>
        <time>2009-11-04T10:24:41Z</time>
      </trkpt>
      <trkpt lat="47.31082" lon="-1.94815">
        <ele>8.308594</ele>
        <time>2009-11-04T10:24:43Z</time>
      </trkpt>
      <trkpt lat="47.31094" lon="-1.94859">
        <ele>8.789185</ele>
        <time>2009-11-04T10:24:51Z</time>
      </trkpt>
      <trkpt lat="47.31103" lon="-1.9488">
        <ele>9.269897</ele>
        <time>2009-11-04T10:24:56Z</time>
      </trkpt>
      <trkpt lat="47.31111" lon="-1.94892">
        <ele>9.269897</ele>
        <time>2009-11-04T10:24:59Z</time>
      </trkpt>
      <trkpt lat="47.31118" lon="-1.94916">
        <ele>9.75061</ele>
        <time>2009-11-04T10:25:03Z</time>
      </trkpt>
      <trkpt lat="47.31127" lon="-1.9499">
        <ele>9.269897</ele>
        <time>2009-11-04T10:25:15Z</time>
      </trkpt>
      <trkpt lat="47.31132" lon="-1.95015">
        <ele>8.789185</ele>
        <time>2009-11-04T10:25:20Z</time>
      </trkpt>
      <trkpt lat="47.31126" lon="-1.95039">
        <ele>8.308594</ele>
        <time>2009-11-04T10:25:24Z</time>
      </trkpt>
      <trkpt lat="47.31112" lon="-1.95051">
        <ele>7.827881</ele>
        <time>2009-11-04T10:25:27Z</time>
      </trkpt>
      <trkpt lat="47.31073" lon="-1.95079">
        <ele>7.827881</ele>
        <time>2009-11-04T10:25:35Z</time>
      </trkpt>
      <trkpt lat="47.31036" lon="-1.95087">
        <ele>7.347168</ele>
        <time>2009-11-04T10:25:41Z</time>
      </trkpt>
      <trkpt lat="47.30997" lon="-1.951">
        <ele>7.827881</ele>
        <time>2009-11-04T10:25:48Z</time>
      </trkpt>
      <trkpt lat="47.30976" lon="-1.95112">
        <ele>7.347168</ele>
        <time>2009-11-04T10:25:52Z</time>
      </trkpt>
      <trkpt lat="47.30945" lon="-1.95138">
        <ele>6.866455</ele>
        <time>2009-11-04T10:25:58Z</time>
      </trkpt>
      <trkpt lat="47.30921" lon="-1.95146">
        <ele>6.385864</ele>
        <time>2009-11-04T10:26:02Z</time>
      </trkpt>
      <trkpt lat="47.30901" lon="-1.95149">
        <ele>6.385864</ele>
        <time>2009-11-04T10:26:05Z</time>
      </trkpt>
      <trkpt lat="47.30881" lon="-1.95168">
        <ele>5.424561</ele>
        <time>2009-11-04T10:26:09Z</time>
      </trkpt>
      <trkpt lat="47.30879" lon="-1.95177">
        <ele>5.424561</ele>
        <time>2009-11-04T10:26:10Z</time>
      </trkpt>
      <trkpt lat="47.30875" lon="-1.95195">
        <ele>4.943848</ele>
        <time>2009-11-04T10:26:12Z</time>
      </trkpt>
      <trkpt lat="47.30857" lon="-1.95216">
        <ele>5.905273</ele>
        <time>2009-11-04T10:26:16Z</time>
      </trkpt>
      <trkpt lat="47.3081" lon="-1.95233">
        <ele>6.385864</ele>
        <time>2009-11-04T10:26:24Z</time>
      </trkpt>
      <trkpt lat="47.30794" lon="-1.95234">
        <ele>5.905273</ele>
        <time>2009-11-04T10:26:27Z</time>
      </trkpt>
      <trkpt lat="47.30771" lon="-1.95228">
        <ele>6.385864</ele>
        <time>2009-11-04T10:26:33Z</time>
      </trkpt>
      <trkpt lat="47.30763" lon="-1.9524">
        <ele>6.385864</ele>
        <time>2009-11-04T10:26:37Z</time>
      </trkpt>
      <trkpt lat="47.30762" lon="-1.95249">
        <ele>6.385864</ele>
        <time>2009-11-04T10:26:39Z</time>
      </trkpt>
      <trkpt lat="47.30755" lon="-1.95288">
        <ele>6.385864</ele>
        <time>2009-11-04T10:26:46Z</time>
      </trkpt>
      <trkpt lat="47.30746" lon="-1.9534">
        <ele>5.905273</ele>
        <time>2009-11-04T10:26:54Z</time>
      </trkpt>
      <trkpt lat="47.30745" lon="-1.95347">
        <ele>5.905273</ele>
        <time>2009-11-04T10:26:55Z</time>
      </trkpt>
      <trkpt lat="47.30743" lon="-1.9536">
        <ele>5.905273</ele>
        <time>2009-11-04T10:26:57Z</time>
      </trkpt>
      <trkpt lat="47.30734" lon="-1.9541">
        <ele>5.905273</ele>
        <time>2009-11-04T10:27:05Z</time>
      </trkpt>
      <trkpt lat="47.30727" lon="-1.95449">
        <ele>5.905273</ele>
        <time>2009-11-04T10:27:12Z</time>
      </trkpt>
      <trkpt lat="47.30721" lon="-1.95488">
        <ele>5.905273</ele>
        <time>2009-11-04T10:27:20Z</time>
      </trkpt>
      <trkpt lat="47.30715" lon="-1.95522">
        <ele>5.905273</ele>
        <time>2009-11-04T10:27:27Z</time>
      </trkpt>
      <trkpt lat="47.30708" lon="-1.9556">
        <ele>5.424561</ele>
        <time>2009-11-04T10:27:35Z</time>
      </trkpt>
      <trkpt lat="47.30701" lon="-1.95599">
        <ele>5.424561</ele>
        <time>2009-11-04T10:27:43Z</time>
      </trkpt>
      <trkpt lat="47.30693" lon="-1.9564">
        <ele>5.424561</ele>
        <time>2009-11-04T10:27:51Z</time>
      </trkpt>
      <trkpt lat="47.30686" lon="-1.95682">
        <ele>5.905273</ele>
        <time>2009-11-04T10:27:59Z</time>
      </trkpt>
      <trkpt lat="47.30678" lon="-1.95723">
        <ele>5.905273</ele>
        <time>2009-11-04T10:28:07Z</time>
      </trkpt>
      <trkpt lat="47.3067" lon="-1.95767">
        <ele>5.424561</ele>
        <time>2009-11-04T10:28:15Z</time>
      </trkpt>
      <trkpt lat="47.30663" lon="-1.95809">
        <ele>5.905273</ele>
        <time>2009-11-04T10:28:23Z</time>
      </trkpt>
      <trkpt lat="47.30655" lon="-1.9585">
        <ele>5.905273</ele>
        <time>2009-11-04T10:28:32Z</time>
      </trkpt>
      <trkpt lat="47.30647" lon="-1.95889">
        <ele>5.905273</ele>
        <time>2009-11-04T10:28:40Z</time>
      </trkpt>
      <trkpt lat="47.30639" lon="-1.95936">
        <ele>5.424561</ele>
        <time>2009-11-04T10:28:49Z</time>
      </trkpt>
      <trkpt lat="47.30636" lon="-1.95952">
        <ele>5.424561</ele>
        <time>2009-11-04T10:28:53Z</time>
      </trkpt>
      <trkpt lat="47.30643" lon="-1.9596">
        <ele>4.943848</ele>
        <time>2009-11-04T10:28:57Z</time>
      </trkpt>
      <trkpt lat="47.30648" lon="-1.95962">
        <ele>5.424561</ele>
        <time>2009-11-04T10:28:59Z</time>
      </trkpt>
      <trkpt lat="47.30651" lon="-1.95974">
        <ele>5.905273</ele>
        <time>2009-11-04T10:29:03Z</time>
      </trkpt>
      <trkpt lat="47.30646" lon="-1.96003">
        <ele>5.905273</ele>
        <time>2009-11-04T10:29:09Z</time>
      </trkpt>
      <trkpt lat="47.30638" lon="-1.96039">
        <ele>5.424561</ele>
        <time>2009-11-04T10:29:16Z</time>
      </trkpt>
      <trkpt lat="47.30632" lon="-1.96057">
        <ele>4.943848</ele>
        <time>2009-11-04T10:29:21Z</time>
      </trkpt>
      <trkpt lat="47.30628" lon="-1.9607">
        <ele>4.463257</ele>
        <time>2009-11-04T10:29:26Z</time>
      </trkpt>
      <trkpt lat="47.30618" lon="-1.96101">
        <ele>5.424561</ele>
        <time>2009-11-04T10:29:33Z</time>
      </trkpt>
      <trkpt lat="47.30607" lon="-1.96144">
        <ele>5.424561</ele>
        <time>2009-11-04T10:29:41Z</time>
      </trkpt>
      <trkpt lat="47.30599" lon="-1.96186">
        <ele>4.463257</ele>
        <time>2009-11-04T10:29:48Z</time>
      </trkpt>
      <trkpt lat="47.3059" lon="-1.96235">
        <ele>5.424561</ele>
        <time>2009-11-04T10:29:56Z</time>
      </trkpt>
      <trkpt lat="47.30582" lon="-1.96286">
        <ele>4.463257</ele>
        <time>2009-11-04T10:30:04Z</time>
      </trkpt>
      <trkpt lat="47.30579" lon="-1.9633">
        <ele>4.463257</ele>
        <time>2009-11-04T10:30:11Z</time>
      </trkpt>
      <trkpt lat="47.30578" lon="-1.96371">
        <ele>4.943848</ele>
        <time>2009-11-04T10:30:18Z</time>
      </trkpt>
      <trkpt lat="47.30572" lon="-1.96407">
        <ele>5.424561</ele>
        <time>2009-11-04T10:30:25Z</time>
      </trkpt>
      <trkpt lat="47.30558" lon="-1.96422">
        <ele>4.943848</ele>
        <time>2009-11-04T10:30:30Z</time>
      </trkpt>
      <trkpt lat="47.3054" lon="-1.96446">
        <ele>5.424561</ele>
        <time>2009-11-04T10:30:36Z</time>
      </trkpt>
      <trkpt lat="47.30532" lon="-1.9646">
        <ele>5.424561</ele>
        <time>2009-11-04T10:30:39Z</time>
      </trkpt>
      <trkpt lat="47.30517" lon="-1.96501">
        <ele>4.943848</ele>
        <time>2009-11-04T10:30:46Z</time>
      </trkpt>
      <trkpt lat="47.30508" lon="-1.9654">
        <ele>4.943848</ele>
        <time>2009-11-04T10:30:52Z</time>
      </trkpt>
      <trkpt lat="47.30507" lon="-1.96547">
        <ele>4.943848</ele>
        <time>2009-11-04T10:30:53Z</time>
      </trkpt>
      <trkpt lat="47.30504" lon="-1.96609">
        <ele>4.943848</ele>
        <time>2009-11-04T10:31:02Z</time>
      </trkpt>
      <trkpt lat="47.30505" lon="-1.96653">
        <ele>4.943848</ele>
        <time>2009-11-04T10:31:09Z</time>
      </trkpt>
      <trkpt lat="47.30504" lon="-1.9666">
        <ele>5.424561</ele>
        <time>2009-11-04T10:31:11Z</time>
      </trkpt>
      <trkpt lat="47.30495" lon="-1.96665">
        <ele>5.424561</ele>
        <time>2009-11-04T10:31:16Z</time>
      </trkpt>
      <trkpt lat="47.30487" lon="-1.96659">
        <ele>5.424561</ele>
        <time>2009-11-04T10:31:20Z</time>
      </trkpt>
      <trkpt lat="47.30469" lon="-1.96656">
        <ele>4.943848</ele>
        <time>2009-11-04T10:31:26Z</time>
      </trkpt>
      <trkpt lat="47.30461" lon="-1.96655">
        <ele>5.905273</ele>
        <time>2009-11-04T10:31:28Z</time>
      </trkpt>
      <trkpt lat="47.30427" lon="-1.96653">
        <ele>4.943848</ele>
        <time>2009-11-04T10:31:35Z</time>
      </trkpt>
      <trkpt lat="47.30373" lon="-1.96643">
        <ele>5.424561</ele>
        <time>2009-11-04T10:31:45Z</time>
      </trkpt>
      <trkpt lat="47.30329" lon="-1.96635">
        <ele>4.943848</ele>
        <time>2009-11-04T10:31:53Z</time>
      </trkpt>
      <trkpt lat="47.30291" lon="-1.9663">
        <ele>5.424561</ele>
        <time>2009-11-04T10:32:00Z</time>
      </trkpt>
      <trkpt lat="47.30238" lon="-1.9662">
        <ele>5.905273</ele>
        <time>2009-11-04T10:32:10Z</time>
      </trkpt>
      <trkpt lat="47.30199" lon="-1.96616">
        <ele>5.424561</ele>
        <time>2009-11-04T10:32:18Z</time>
      </trkpt>
      <trkpt lat="47.30188" lon="-1.96614">
        <ele>5.424561</ele>
        <time>2009-11-04T10:32:21Z</time>
      </trkpt>
      <trkpt lat="47.30183" lon="-1.96627">
        <ele>4.943848</ele>
        <time>2009-11-04T10:32:25Z</time>
      </trkpt>
      <trkpt lat="47.30182" lon="-1.96678">
        <ele>4.463257</ele>
        <time>2009-11-04T10:32:33Z</time>
      </trkpt>
      <trkpt lat="47.30181" lon="-1.96706">
        <ele>3.982666</ele>
        <time>2009-11-04T10:32:37Z</time>
      </trkpt>
      <trkpt lat="47.30176" lon="-1.96731">
        <ele>5.424561</ele>
        <time>2009-11-04T10:32:41Z</time>
      </trkpt>
      <trkpt lat="47.30149" lon="-1.96805">
        <ele>4.463257</ele>
        <time>2009-11-04T10:32:52Z</time>
      </trkpt>
      <trkpt lat="47.30123" lon="-1.96876">
        <ele>4.943848</ele>
        <time>2009-11-04T10:33:02Z</time>
      </trkpt>
      <trkpt lat="47.30121" lon="-1.96883">
        <ele>4.943848</ele>
        <time>2009-11-04T10:33:03Z</time>
      </trkpt>
      <trkpt lat="47.30119" lon="-1.9691">
        <ele>4.463257</ele>
        <time>2009-11-04T10:33:07Z</time>
      </trkpt>
      <trkpt lat="47.3011" lon="-1.96942">
        <ele>4.463257</ele>
        <time>2009-11-04T10:33:12Z</time>
      </trkpt>
      <trkpt lat="47.30089" lon="-1.96998">
        <ele>4.463257</ele>
        <time>2009-11-04T10:33:21Z</time>
      </trkpt>
      <trkpt lat="47.30086" lon="-1.97008">
        <ele>3.982666</ele>
        <time>2009-11-04T10:33:23Z</time>
      </trkpt>
      <trkpt lat="47.30082" lon="-1.97028">
        <ele>4.463257</ele>
        <time>2009-11-04T10:33:27Z</time>
      </trkpt>
      <trkpt lat="47.30062" lon="-1.97085">
        <ele>4.943848</ele>
        <time>2009-11-04T10:33:36Z</time>
      </trkpt>
      <trkpt lat="47.30036" lon="-1.97157">
        <ele>4.943848</ele>
        <time>2009-11-04T10:33:46Z</time>
      </trkpt>
      <trkpt lat="47.30023" lon="-1.97192">
        <ele>4.943848</ele>
        <time>2009-11-04T10:33:51Z</time>
      </trkpt>
      <trkpt lat="47.30007" lon="-1.97209">
        <ele>4.943848</ele>
        <time>2009-11-04T10:33:56Z</time>
      </trkpt>
      <trkpt lat="47.29985" lon="-1.97221">
        <ele>4.943848</ele>
        <time>2009-11-04T10:34:01Z</time>
      </trkpt>
      <trkpt lat="47.2994" lon="-1.97235">
        <ele>5.424561</ele>
        <time>2009-11-04T10:34:10Z</time>
      </trkpt>
      <trkpt lat="47.29894" lon="-1.97247">
        <ele>5.424561</ele>
        <time>2009-11-04T10:34:19Z</time>
      </trkpt>
      <trkpt lat="47.29861" lon="-1.97249">
        <ele>5.424561</ele>
        <time>2009-11-04T10:34:26Z</time>
      </trkpt>
      <trkpt lat="47.29864" lon="-1.97258">
        <ele>3.982666</ele>
        <time>2009-11-04T10:34:30Z</time>
      </trkpt>
      <trkpt lat="47.29874" lon="-1.97266">
        <ele>3.982666</ele>
        <time>2009-11-04T10:34:33Z</time>
      </trkpt>
      <trkpt lat="47.29895" lon="-1.9728">
        <ele>3.982666</ele>
        <time>2009-11-04T10:34:38Z</time>
      </trkpt>
      <trkpt lat="47.29935" lon="-1.97284">
        <ele>3.982666</ele>
        <time>2009-11-04T10:34:46Z</time>
      </trkpt>
      <trkpt lat="47.29984" lon="-1.97282">
        <ele>4.463257</ele>
        <time>2009-11-04T10:34:55Z</time>
      </trkpt>
      <trkpt lat="47.30046" lon="-1.97281">
        <ele>4.463257</ele>
        <time>2009-11-04T10:35:06Z</time>
      </trkpt>
      <trkpt lat="47.301" lon="-1.9728">
        <ele>3.982666</ele>
        <time>2009-11-04T10:35:15Z</time>
      </trkpt>
      <trkpt lat="47.3016" lon="-1.97278">
        <ele>4.463257</ele>
        <time>2009-11-04T10:35:25Z</time>
      </trkpt>
      <trkpt lat="47.30206" lon="-1.97278">
        <ele>4.463257</ele>
        <time>2009-11-04T10:35:33Z</time>
      </trkpt>
      <trkpt lat="47.30258" lon="-1.97277">
        <ele>3.982666</ele>
        <time>2009-11-04T10:35:42Z</time>
      </trkpt>
      <trkpt lat="47.30311" lon="-1.97275">
        <ele>4.463257</ele>
        <time>2009-11-04T10:35:51Z</time>
      </trkpt>
      <trkpt lat="47.3037" lon="-1.97274">
        <ele>3.982666</ele>
        <time>2009-11-04T10:36:01Z</time>
      </trkpt>
      <trkpt lat="47.30428" lon="-1.97273">
        <ele>4.463257</ele>
        <time>2009-11-04T10:36:11Z</time>
      </trkpt>
      <trkpt lat="47.30465" lon="-1.97272">
        <ele>4.463257</ele>
        <time>2009-11-04T10:36:18Z</time>
      </trkpt>
      <trkpt lat="47.30495" lon="-1.97272">
        <ele>4.943848</ele>
        <time>2009-11-04T10:36:25Z</time>
      </trkpt>
      <trkpt lat="47.30506" lon="-1.97273">
        <ele>4.943848</ele>
        <time>2009-11-04T10:36:29Z</time>
      </trkpt>
      <trkpt lat="47.3052" lon="-1.9727">
        <ele>4.463257</ele>
        <time>2009-11-04T10:36:34Z</time>
      </trkpt>
      <trkpt lat="47.30532" lon="-1.97283">
        <ele>4.463257</ele>
        <time>2009-11-04T10:36:38Z</time>
      </trkpt>
      <trkpt lat="47.30534" lon="-1.97329">
        <ele>3.982666</ele>
        <time>2009-11-04T10:36:45Z</time>
      </trkpt>
      <trkpt lat="47.30534" lon="-1.97395">
        <ele>4.463257</ele>
        <time>2009-11-04T10:36:54Z</time>
      </trkpt>
      <trkpt lat="47.30535" lon="-1.97454">
        <ele>3.982666</ele>
        <time>2009-11-04T10:37:02Z</time>
      </trkpt>
      <trkpt lat="47.30538" lon="-1.9751">
        <ele>3.982666</ele>
        <time>2009-11-04T10:37:10Z</time>
      </trkpt>
      <trkpt lat="47.30541" lon="-1.97571">
        <ele>3.982666</ele>
        <time>2009-11-04T10:37:19Z</time>
      </trkpt>
      <trkpt lat="47.30541" lon="-1.97621">
        <ele>3.501953</ele>
        <time>2009-11-04T10:37:26Z</time>
      </trkpt>
      <trkpt lat="47.30534" lon="-1.97687">
        <ele>3.982666</ele>
        <time>2009-11-04T10:37:35Z</time>
      </trkpt>
      <trkpt lat="47.30527" lon="-1.97738">
        <ele>3.982666</ele>
        <time>2009-11-04T10:37:42Z</time>
      </trkpt>
      <trkpt lat="47.30531" lon="-1.97765">
        <ele>3.501953</ele>
        <time>2009-11-04T10:37:46Z</time>
      </trkpt>
      <trkpt lat="47.3053" lon="-1.97801">
        <ele>3.982666</ele>
        <time>2009-11-04T10:37:51Z</time>
      </trkpt>
      <trkpt lat="47.30528" lon="-1.97868">
        <ele>3.982666</ele>
        <time>2009-11-04T10:38:00Z</time>
      </trkpt>
      <trkpt lat="47.3053" lon="-1.97941">
        <ele>4.463257</ele>
        <time>2009-11-04T10:38:10Z</time>
      </trkpt>
      <trkpt lat="47.30527" lon="-1.97998">
        <ele>4.463257</ele>
        <time>2009-11-04T10:38:18Z</time>
      </trkpt>
      <trkpt lat="47.30526" lon="-1.98026">
        <ele>3.982666</ele>
        <time>2009-11-04T10:38:22Z</time>
      </trkpt>
      <trkpt lat="47.30534" lon="-1.98052">
        <ele>4.463257</ele>
        <time>2009-11-04T10:38:27Z</time>
      </trkpt>
      <trkpt lat="47.30552" lon="-1.98067">
        <ele>5.424561</ele>
        <time>2009-11-04T10:38:33Z</time>
      </trkpt>
      <trkpt lat="47.30561" lon="-1.98082">
        <ele>5.905273</ele>
        <time>2009-11-04T10:38:38Z</time>
      </trkpt>
      <trkpt lat="47.30554" lon="-1.98092">
        <ele>5.424561</ele>
        <time>2009-11-04T10:38:42Z</time>
      </trkpt>
      <trkpt lat="47.30531" lon="-1.98102">
        <ele>5.424561</ele>
        <time>2009-11-04T10:38:49Z</time>
      </trkpt>
      <trkpt lat="47.30523" lon="-1.98108">
        <ele>5.905273</ele>
        <time>2009-11-04T10:38:51Z</time>
      </trkpt>
      <trkpt lat="47.30511" lon="-1.98127">
        <ele>4.463257</ele>
        <time>2009-11-04T10:38:55Z</time>
      </trkpt>
      <trkpt lat="47.30509" lon="-1.98133">
        <ele>3.982666</ele>
        <time>2009-11-04T10:38:56Z</time>
      </trkpt>
      <trkpt lat="47.30506" lon="-1.98148">
        <ele>3.982666</ele>
        <time>2009-11-04T10:38:59Z</time>
      </trkpt>
      <trkpt lat="47.30514" lon="-1.9819">
        <ele>4.463257</ele>
        <time>2009-11-04T10:39:06Z</time>
      </trkpt>
      <trkpt lat="47.30527" lon="-1.98212">
        <ele>4.463257</ele>
        <time>2009-11-04T10:39:11Z</time>
      </trkpt>
      <trkpt lat="47.30543" lon="-1.98233">
        <ele>4.463257</ele>
        <time>2009-11-04T10:39:16Z</time>
      </trkpt>
      <trkpt lat="47.30551" lon="-1.98257">
        <ele>4.943848</ele>
        <time>2009-11-04T10:39:21Z</time>
      </trkpt>
      <trkpt lat="47.30554" lon="-1.9827">
        <ele>3.982666</ele>
        <time>2009-11-04T10:39:24Z</time>
      </trkpt>
      <trkpt lat="47.30566" lon="-1.98288">
        <ele>3.501953</ele>
        <time>2009-11-04T10:39:29Z</time>
      </trkpt>
      <trkpt lat="47.30585" lon="-1.98298">
        <ele>3.982666</ele>
        <time>2009-11-04T10:39:35Z</time>
      </trkpt>
      <trkpt lat="47.30605" lon="-1.98308">
        <ele>3.982666</ele>
        <time>2009-11-04T10:39:41Z</time>
      </trkpt>
      <trkpt lat="47.30635" lon="-1.98326">
        <ele>4.463257</ele>
        <time>2009-11-04T10:39:49Z</time>
      </trkpt>
      <trkpt lat="47.30639" lon="-1.98329">
        <ele>3.982666</ele>
        <time>2009-11-04T10:39:50Z</time>
      </trkpt>
      <trkpt lat="47.30666" lon="-1.98345">
        <ele>4.943848</ele>
        <time>2009-11-04T10:39:57Z</time>
      </trkpt>
      <trkpt lat="47.30703" lon="-1.98357">
        <ele>5.424561</ele>
        <time>2009-11-04T10:40:05Z</time>
      </trkpt>
      <trkpt lat="47.30726" lon="-1.98367">
        <ele>4.943848</ele>
        <time>2009-11-04T10:40:11Z</time>
      </trkpt>
      <trkpt lat="47.3073" lon="-1.98368">
        <ele>5.424561</ele>
        <time>2009-11-04T10:40:12Z</time>
      </trkpt>
      <trkpt lat="47.30754" lon="-1.98384">
        <ele>4.943848</ele>
        <time>2009-11-04T10:40:18Z</time>
      </trkpt>
      <trkpt lat="47.30779" lon="-1.9841">
        <ele>5.424561</ele>
        <time>2009-11-04T10:40:25Z</time>
      </trkpt>
      <trkpt lat="47.30801" lon="-1.9843">
        <ele>5.905273</ele>
        <time>2009-11-04T10:40:31Z</time>
      </trkpt>
      <trkpt lat="47.30808" lon="-1.98459">
        <ele>4.943848</ele>
        <time>2009-11-04T10:40:36Z</time>
      </trkpt>
      <trkpt lat="47.3082" lon="-1.98473">
        <ele>3.982666</ele>
        <time>2009-11-04T10:40:39Z</time>
      </trkpt>
      <trkpt lat="47.30858" lon="-1.98508">
        <ele>4.463257</ele>
        <time>2009-11-04T10:40:48Z</time>
      </trkpt>
      <trkpt lat="47.30862" lon="-1.98512">
        <ele>4.463257</ele>
        <time>2009-11-04T10:40:49Z</time>
      </trkpt>
      <trkpt lat="47.3088" lon="-1.98528">
        <ele>4.943848</ele>
        <time>2009-11-04T10:40:54Z</time>
      </trkpt>
      <trkpt lat="47.30897" lon="-1.98556">
        <ele>4.463257</ele>
        <time>2009-11-04T10:41:00Z</time>
      </trkpt>
      <trkpt lat="47.30902" lon="-1.98574">
        <ele>4.463257</ele>
        <time>2009-11-04T10:41:03Z</time>
      </trkpt>
      <trkpt lat="47.30905" lon="-1.98586">
        <ele>4.463257</ele>
        <time>2009-11-04T10:41:05Z</time>
      </trkpt>
      <trkpt lat="47.30919" lon="-1.98614">
        <ele>4.463257</ele>
        <time>2009-11-04T10:41:11Z</time>
      </trkpt>
      <trkpt lat="47.30926" lon="-1.98632">
        <ele>4.463257</ele>
        <time>2009-11-04T10:41:15Z</time>
      </trkpt>
      <trkpt lat="47.30941" lon="-1.9866">
        <ele>4.943848</ele>
        <time>2009-11-04T10:41:21Z</time>
      </trkpt>
      <trkpt lat="47.30945" lon="-1.98671">
        <ele>4.463257</ele>
        <time>2009-11-04T10:41:23Z</time>
      </trkpt>
      <trkpt lat="47.30959" lon="-1.98704">
        <ele>4.463257</ele>
        <time>2009-11-04T10:41:29Z</time>
      </trkpt>
      <trkpt lat="47.30967" lon="-1.98733">
        <ele>3.982666</ele>
        <time>2009-11-04T10:41:34Z</time>
      </trkpt>
      <trkpt lat="47.30982" lon="-1.98761">
        <ele>4.463257</ele>
        <time>2009-11-04T10:41:40Z</time>
      </trkpt>
      <trkpt lat="47.31005" lon="-1.98775">
        <ele>4.943848</ele>
        <time>2009-11-04T10:41:47Z</time>
      </trkpt>
      <trkpt lat="47.3102" lon="-1.98768">
        <ele>5.424561</ele>
        <time>2009-11-04T10:41:52Z</time>
      </trkpt>
      <trkpt lat="47.31023" lon="-1.98766">
        <ele>5.424561</ele>
        <time>2009-11-04T10:41:53Z</time>
      </trkpt>
      <trkpt lat="47.31032" lon="-1.98778">
        <ele>4.943848</ele>
        <time>2009-11-04T10:41:58Z</time>
      </trkpt>
      <trkpt lat="47.31035" lon="-1.98797">
        <ele>5.424561</ele>
        <time>2009-11-04T10:42:02Z</time>
      </trkpt>
      <trkpt lat="47.31029" lon="-1.9882">
        <ele>4.943848</ele>
        <time>2009-11-04T10:42:06Z</time>
      </trkpt>
      <trkpt lat="47.31009" lon="-1.98842">
        <ele>5.424561</ele>
        <time>2009-11-04T10:42:12Z</time>
      </trkpt>
      <trkpt lat="47.30995" lon="-1.98862">
        <ele>5.424561</ele>
        <time>2009-11-04T10:42:17Z</time>
      </trkpt>
      <trkpt lat="47.3099" lon="-1.98878">
        <ele>5.424561</ele>
        <time>2009-11-04T10:42:20Z</time>
      </trkpt>
      <trkpt lat="47.30989" lon="-1.98891">
        <ele>4.943848</ele>
        <time>2009-11-04T10:42:22Z</time>
      </trkpt>
      <trkpt lat="47.30995" lon="-1.98922">
        <ele>4.943848</ele>
        <time>2009-11-04T10:42:28Z</time>
      </trkpt>
      <trkpt lat="47.31003" lon="-1.98928">
        <ele>4.943848</ele>
        <time>2009-11-04T10:42:31Z</time>
      </trkpt>
      <trkpt lat="47.3102" lon="-1.98935">
        <ele>4.943848</ele>
        <time>2009-11-04T10:42:36Z</time>
      </trkpt>
      <trkpt lat="47.31033" lon="-1.98931">
        <ele>5.905273</ele>
        <time>2009-11-04T10:42:41Z</time>
      </trkpt>
      <trkpt lat="47.31046" lon="-1.98927">
        <ele>7.827881</ele>
        <time>2009-11-04T10:42:45Z</time>
      </trkpt>
      <trkpt lat="47.31053" lon="-1.98925">
        <ele>6.385864</ele>
        <time>2009-11-04T10:42:47Z</time>
      </trkpt>
      <trkpt lat="47.31072" lon="-1.98922">
        <ele>5.905273</ele>
        <time>2009-11-04T10:42:52Z</time>
      </trkpt>
      <trkpt lat="47.31087" lon="-1.98917">
        <ele>6.385864</ele>
        <time>2009-11-04T10:42:57Z</time>
      </trkpt>
      <trkpt lat="47.31094" lon="-1.98919">
        <ele>5.424561</ele>
        <time>2009-11-04T10:42:59Z</time>
      </trkpt>
      <trkpt lat="47.31101" lon="-1.98907">
        <ele>4.943848</ele>
        <time>2009-11-04T10:43:03Z</time>
      </trkpt>
      <trkpt lat="47.31103" lon="-1.98896">
        <ele>4.943848</ele>
        <time>2009-11-04T10:43:05Z</time>
      </trkpt>
      <trkpt lat="47.31102" lon="-1.98861">
        <ele>5.424561</ele>
        <time>2009-11-04T10:43:11Z</time>
      </trkpt>
      <trkpt lat="47.31095" lon="-1.98841">
        <ele>4.943848</ele>
        <time>2009-11-04T10:43:15Z</time>
      </trkpt>
      <trkpt lat="47.31079" lon="-1.98817">
        <ele>5.424561</ele>
        <time>2009-11-04T10:43:20Z</time>
      </trkpt>
      <trkpt lat="47.31058" lon="-1.98785">
        <ele>5.424561</ele>
        <time>2009-11-04T10:43:27Z</time>
      </trkpt>
      <trkpt lat="47.31053" lon="-1.98775">
        <ele>5.424561</ele>
        <time>2009-11-04T10:43:29Z</time>
      </trkpt>
      <trkpt lat="47.31043" lon="-1.98747">
        <ele>5.424561</ele>
        <time>2009-11-04T10:43:34Z</time>
      </trkpt>
      <trkpt lat="47.31037" lon="-1.98715">
        <ele>5.905273</ele>
        <time>2009-11-04T10:43:39Z</time>
      </trkpt>
      <trkpt lat="47.3103" lon="-1.9867">
        <ele>5.905273</ele>
        <time>2009-11-04T10:43:46Z</time>
      </trkpt>
      <trkpt lat="47.31027" lon="-1.98645">
        <ele>5.905273</ele>
        <time>2009-11-04T10:43:51Z</time>
      </trkpt>
      <trkpt lat="47.3102" lon="-1.98612">
        <ele>6.385864</ele>
        <time>2009-11-04T10:43:57Z</time>
      </trkpt>
      <trkpt lat="47.31008" lon="-1.98556">
        <ele>6.385864</ele>
        <time>2009-11-04T10:44:06Z</time>
      </trkpt>
      <trkpt lat="47.30997" lon="-1.98506">
        <ele>8.308594</ele>
        <time>2009-11-04T10:44:14Z</time>
      </trkpt>
      <trkpt lat="47.30994" lon="-1.98487">
        <ele>8.789185</ele>
        <time>2009-11-04T10:44:17Z</time>
      </trkpt>
      <trkpt lat="47.30983" lon="-1.98432">
        <ele>10.71179</ele>
        <time>2009-11-04T10:44:26Z</time>
      </trkpt>
      <trkpt lat="47.30983" lon="-1.98427">
        <ele>11.1925</ele>
        <time>2009-11-04T10:44:27Z</time>
      </trkpt>
      <trkpt lat="47.30995" lon="-1.98414">
        <ele>10.71179</ele>
        <time>2009-11-04T10:44:31Z</time>
      </trkpt>
      <trkpt lat="47.31004" lon="-1.98413">
        <ele>9.75061</ele>
        <time>2009-11-04T10:44:33Z</time>
      </trkpt>
      <trkpt lat="47.31033" lon="-1.98411">
        <ele>8.308594</ele>
        <time>2009-11-04T10:44:39Z</time>
      </trkpt>
      <trkpt lat="47.31081" lon="-1.98412">
        <ele>6.866455</ele>
        <time>2009-11-04T10:44:48Z</time>
      </trkpt>
      <trkpt lat="47.31086" lon="-1.98412">
        <ele>6.385864</ele>
        <time>2009-11-04T10:44:49Z</time>
      </trkpt>
      <trkpt lat="47.31103" lon="-1.98413">
        <ele>6.866455</ele>
        <time>2009-11-04T10:44:53Z</time>
      </trkpt>
      <trkpt lat="47.31117" lon="-1.98424">
        <ele>6.385864</ele>
        <time>2009-11-04T10:44:57Z</time>
      </trkpt>
      <trkpt lat="47.31117" lon="-1.98429">
        <ele>6.385864</ele>
        <time>2009-11-04T10:44:58Z</time>
      </trkpt>
      <trkpt lat="47.31123" lon="-1.98493">
        <ele>5.424561</ele>
        <time>2009-11-04T10:45:07Z</time>
      </trkpt>
      <trkpt lat="47.31137" lon="-1.98527">
        <ele>4.943848</ele>
        <time>2009-11-04T10:45:12Z</time>
      </trkpt>
      <trkpt lat="47.31146" lon="-1.98528">
        <ele>4.943848</ele>
        <time>2009-11-04T10:45:14Z</time>
      </trkpt>
      <trkpt lat="47.31179" lon="-1.98511">
        <ele>4.943848</ele>
        <time>2009-11-04T10:45:21Z</time>
      </trkpt>
      <trkpt lat="47.31196" lon="-1.98484">
        <ele>4.943848</ele>
        <time>2009-11-04T10:45:26Z</time>
      </trkpt>
      <trkpt lat="47.31215" lon="-1.98438">
        <ele>5.424561</ele>
        <time>2009-11-04T10:45:33Z</time>
      </trkpt>
      <trkpt lat="47.31225" lon="-1.98414">
        <ele>5.424561</ele>
        <time>2009-11-04T10:45:37Z</time>
      </trkpt>
      <trkpt lat="47.31247" lon="-1.98392">
        <ele>4.943848</ele>
        <time>2009-11-04T10:45:43Z</time>
      </trkpt>
      <trkpt lat="47.31272" lon="-1.98375">
        <ele>4.943848</ele>
        <time>2009-11-04T10:45:49Z</time>
      </trkpt>
      <trkpt lat="47.31289" lon="-1.98375">
        <ele>4.943848</ele>
        <time>2009-11-04T10:45:53Z</time>
      </trkpt>
      <trkpt lat="47.31296" lon="-1.98383">
        <ele>4.943848</ele>
        <time>2009-11-04T10:45:55Z</time>
      </trkpt>
      <trkpt lat="47.3131" lon="-1.98401">
        <ele>4.463257</ele>
        <time>2009-11-04T10:45:59Z</time>
      </trkpt>
      <trkpt lat="47.31338" lon="-1.98449">
        <ele>4.943848</ele>
        <time>2009-11-04T10:46:08Z</time>
      </trkpt>
      <trkpt lat="47.31344" lon="-1.98455">
        <ele>4.943848</ele>
        <time>2009-11-04T10:46:10Z</time>
      </trkpt>
      <trkpt lat="47.31365" lon="-1.98459">
        <ele>5.424561</ele>
        <time>2009-11-04T10:46:15Z</time>
      </trkpt>
      <trkpt lat="47.31369" lon="-1.98458">
        <ele>5.424561</ele>
        <time>2009-11-04T10:46:16Z</time>
      </trkpt>
      <trkpt lat="47.31407" lon="-1.98443">
        <ele>5.905273</ele>
        <time>2009-11-04T10:46:25Z</time>
      </trkpt>
      <trkpt lat="47.31444" lon="-1.98431">
        <ele>4.943848</ele>
        <time>2009-11-04T10:46:33Z</time>
      </trkpt>
      <trkpt lat="47.31448" lon="-1.9843">
        <ele>5.424561</ele>
        <time>2009-11-04T10:46:34Z</time>
      </trkpt>
      <trkpt lat="47.31463" lon="-1.98415">
        <ele>5.424561</ele>
        <time>2009-11-04T10:46:38Z</time>
      </trkpt>
      <trkpt lat="47.31466" lon="-1.98401">
        <ele>5.905273</ele>
        <time>2009-11-04T10:46:40Z</time>
      </trkpt>
      <trkpt lat="47.31468" lon="-1.98386">
        <ele>5.424561</ele>
        <time>2009-11-04T10:46:42Z</time>
      </trkpt>
      <trkpt lat="47.31474" lon="-1.98358">
        <ele>5.424561</ele>
        <time>2009-11-04T10:46:46Z</time>
      </trkpt>
      <trkpt lat="47.31491" lon="-1.98333">
        <ele>4.943848</ele>
        <time>2009-11-04T10:46:51Z</time>
      </trkpt>
      <trkpt lat="47.31514" lon="-1.98315">
        <ele>5.424561</ele>
        <time>2009-11-04T10:46:56Z</time>
      </trkpt>
      <trkpt lat="47.3155" lon="-1.98288">
        <ele>5.424561</ele>
        <time>2009-11-04T10:47:04Z</time>
      </trkpt>
      <trkpt lat="47.31568" lon="-1.98273">
        <ele>5.424561</ele>
        <time>2009-11-04T10:47:10Z</time>
      </trkpt>
      <trkpt lat="47.31585" lon="-1.98265">
        <ele>4.943848</ele>
        <time>2009-11-04T10:47:15Z</time>
      </trkpt>
      <trkpt lat="47.31611" lon="-1.98256">
        <ele>5.424561</ele>
        <time>2009-11-04T10:47:21Z</time>
      </trkpt>
      <trkpt lat="47.31639" lon="-1.9825">
        <ele>5.424561</ele>
        <time>2009-11-04T10:47:27Z</time>
      </trkpt>
      <trkpt lat="47.31644" lon="-1.98249">
        <ele>5.424561</ele>
        <time>2009-11-04T10:47:28Z</time>
      </trkpt>
      <trkpt lat="47.31663" lon="-1.98236">
        <ele>4.943848</ele>
        <time>2009-11-04T10:47:32Z</time>
      </trkpt>
      <trkpt lat="47.31718" lon="-1.98175">
        <ele>5.905273</ele>
        <time>2009-11-04T10:47:45Z</time>
      </trkpt>
      <trkpt lat="47.31759" lon="-1.98129">
        <ele>6.385864</ele>
        <time>2009-11-04T10:47:55Z</time>
      </trkpt>
      <trkpt lat="47.31763" lon="-1.98125">
        <ele>6.866455</ele>
        <time>2009-11-04T10:47:56Z</time>
      </trkpt>
      <trkpt lat="47.31795" lon="-1.98089">
        <ele>5.905273</ele>
        <time>2009-11-04T10:48:04Z</time>
      </trkpt>
      <trkpt lat="47.31835" lon="-1.98045">
        <ele>5.424561</ele>
        <time>2009-11-04T10:48:14Z</time>
      </trkpt>
      <trkpt lat="47.31862" lon="-1.98015">
        <ele>5.905273</ele>
        <time>2009-11-04T10:48:21Z</time>
      </trkpt>
      <trkpt lat="47.31887" lon="-1.97986">
        <ele>5.905273</ele>
        <time>2009-11-04T10:48:28Z</time>
      </trkpt>
      <trkpt lat="47.3192" lon="-1.97958">
        <ele>6.385864</ele>
        <time>2009-11-04T10:48:36Z</time>
      </trkpt>
      <trkpt lat="47.31966" lon="-1.97937">
        <ele>5.424561</ele>
        <time>2009-11-04T10:48:46Z</time>
      </trkpt>
      <trkpt lat="47.31975" lon="-1.97934">
        <ele>6.866455</ele>
        <time>2009-11-04T10:48:48Z</time>
      </trkpt>
      <trkpt lat="47.32026" lon="-1.97909">
        <ele>5.905273</ele>
        <time>2009-11-04T10:48:59Z</time>
      </trkpt>
      <trkpt lat="47.32058" lon="-1.97893">
        <ele>5.424561</ele>
        <time>2009-11-04T10:49:06Z</time>
      </trkpt>
      <trkpt lat="47.32091" lon="-1.9787">
        <ele>5.424561</ele>
        <time>2009-11-04T10:49:14Z</time>
      </trkpt>
      <trkpt lat="47.32139" lon="-1.97836">
        <ele>4.463257</ele>
        <time>2009-11-04T10:49:25Z</time>
      </trkpt>
      <trkpt lat="47.32176" lon="-1.9781">
        <ele>5.424561</ele>
        <time>2009-11-04T10:49:33Z</time>
      </trkpt>
      <trkpt lat="47.32212" lon="-1.97785">
        <ele>5.905273</ele>
        <time>2009-11-04T10:49:41Z</time>
      </trkpt>
      <trkpt lat="47.32248" lon="-1.97761">
        <ele>5.424561</ele>
        <time>2009-11-04T10:49:49Z</time>
      </trkpt>
      <trkpt lat="47.32279" lon="-1.9774">
        <ele>5.424561</ele>
        <time>2009-11-04T10:49:57Z</time>
      </trkpt>
      <trkpt lat="47.32298" lon="-1.97724">
        <ele>5.905273</ele>
        <time>2009-11-04T10:50:03Z</time>
      </trkpt>
      <trkpt lat="47.32322" lon="-1.97701">
        <ele>6.385864</ele>
        <time>2009-11-04T10:50:10Z</time>
      </trkpt>
      <trkpt lat="47.32348" lon="-1.97678">
        <ele>5.905273</ele>
        <time>2009-11-04T10:50:17Z</time>
      </trkpt>
      <trkpt lat="47.32375" lon="-1.97654">
        <ele>5.905273</ele>
        <time>2009-11-04T10:50:24Z</time>
      </trkpt>
      <trkpt lat="47.32384" lon="-1.9763">
        <ele>6.866455</ele>
        <time>2009-11-04T10:50:28Z</time>
      </trkpt>
      <trkpt lat="47.32384" lon="-1.97616">
        <ele>5.905273</ele>
        <time>2009-11-04T10:50:30Z</time>
      </trkpt>
      <trkpt lat="47.32376" lon="-1.97571">
        <ele>7.347168</ele>
        <time>2009-11-04T10:50:37Z</time>
      </trkpt>
      <trkpt lat="47.32364" lon="-1.97518">
        <ele>7.347168</ele>
        <time>2009-11-04T10:50:45Z</time>
      </trkpt>
      <trkpt lat="47.32358" lon="-1.97484">
        <ele>8.308594</ele>
        <time>2009-11-04T10:50:51Z</time>
      </trkpt>
      <trkpt lat="47.32355" lon="-1.97463">
        <ele>8.789185</ele>
        <time>2009-11-04T10:50:56Z</time>
      </trkpt>
      <trkpt lat="47.32356" lon="-1.9745">
        <ele>9.269897</ele>
        <time>2009-11-04T10:51:01Z</time>
      </trkpt>
      <trkpt lat="47.32365" lon="-1.97443">
        <ele>9.75061</ele>
        <time>2009-11-04T10:51:08Z</time>
      </trkpt>
      <trkpt lat="47.32379" lon="-1.97445">
        <ele>9.269897</ele>
        <time>2009-11-04T10:51:13Z</time>
      </trkpt>
      <trkpt lat="47.32398" lon="-1.97448">
        <ele>9.269897</ele>
        <time>2009-11-04T10:51:18Z</time>
      </trkpt>
      <trkpt lat="47.32432" lon="-1.97443">
        <ele>9.269897</ele>
        <time>2009-11-04T10:51:25Z</time>
      </trkpt>
      <trkpt lat="47.32464" lon="-1.9744">
        <ele>9.269897</ele>
        <time>2009-11-04T10:51:31Z</time>
      </trkpt>
      <trkpt lat="47.32492" lon="-1.97441">
        <ele>8.789185</ele>
        <time>2009-11-04T10:51:36Z</time>
      </trkpt>
      <trkpt lat="47.32513" lon="-1.97445">
        <ele>7.827881</ele>
        <time>2009-11-04T10:51:40Z</time>
      </trkpt>
      <trkpt lat="47.32524" lon="-1.9745">
        <ele>8.308594</ele>
        <time>2009-11-04T10:51:42Z</time>
      </trkpt>
      <trkpt lat="47.32554" lon="-1.97474">
        <ele>7.347168</ele>
        <time>2009-11-04T10:51:48Z</time>
      </trkpt>
      <trkpt lat="47.3258" lon="-1.97494">
        <ele>6.866455</ele>
        <time>2009-11-04T10:51:54Z</time>
      </trkpt>
      <trkpt lat="47.32592" lon="-1.97489">
        <ele>6.866455</ele>
        <time>2009-11-04T10:51:57Z</time>
      </trkpt>
      <trkpt lat="47.32609" lon="-1.9748">
        <ele>7.347168</ele>
        <time>2009-11-04T10:52:01Z</time>
      </trkpt>
      <trkpt lat="47.32624" lon="-1.97463">
        <ele>7.347168</ele>
        <time>2009-11-04T10:52:05Z</time>
      </trkpt>
      <trkpt lat="47.32624" lon="-1.97441">
        <ele>7.827881</ele>
        <time>2009-11-04T10:52:08Z</time>
      </trkpt>
      <trkpt lat="47.32622" lon="-1.97415">
        <ele>7.827881</ele>
        <time>2009-11-04T10:52:12Z</time>
      </trkpt>
      <trkpt lat="47.32621" lon="-1.97366">
        <ele>8.308594</ele>
        <time>2009-11-04T10:52:19Z</time>
      </trkpt>
      <trkpt lat="47.32619" lon="-1.973">
        <ele>9.269897</ele>
        <time>2009-11-04T10:52:28Z</time>
      </trkpt>
      <trkpt lat="47.32614" lon="-1.97248">
        <ele>9.269897</ele>
        <time>2009-11-04T10:52:35Z</time>
      </trkpt>
      <trkpt lat="47.32604" lon="-1.97196">
        <ele>10.2312</ele>
        <time>2009-11-04T10:52:42Z</time>
      </trkpt>
      <trkpt lat="47.3259" lon="-1.97132">
        <ele>11.1925</ele>
        <time>2009-11-04T10:52:51Z</time>
      </trkpt>
      <trkpt lat="47.32571" lon="-1.97061">
        <ele>13.11511</ele>
        <time>2009-11-04T10:53:01Z</time>
      </trkpt>
      <trkpt lat="47.32571" lon="-1.97027">
        <ele>14.07642</ele>
        <time>2009-11-04T10:53:06Z</time>
      </trkpt>
      <trkpt lat="47.32576" lon="-1.97014">
        <ele>13.59583</ele>
        <time>2009-11-04T10:53:08Z</time>
      </trkpt>
      <trkpt lat="47.32591" lon="-1.96978">
        <ele>14.55701</ele>
        <time>2009-11-04T10:53:14Z</time>
      </trkpt>
      <trkpt lat="47.32594" lon="-1.96944">
        <ele>15.03772</ele>
        <time>2009-11-04T10:53:19Z</time>
      </trkpt>
      <trkpt lat="47.32588" lon="-1.96874">
        <ele>15.99902</ele>
        <time>2009-11-04T10:53:30Z</time>
      </trkpt>
      <trkpt lat="47.32587" lon="-1.96833">
        <ele>17.44116</ele>
        <time>2009-11-04T10:53:37Z</time>
      </trkpt>
      <trkpt lat="47.32591" lon="-1.96804">
        <ele>18.40234</ele>
        <time>2009-11-04T10:53:43Z</time>
      </trkpt>
      <trkpt lat="47.32612" lon="-1.96797">
        <ele>19.36377</ele>
        <time>2009-11-04T10:53:49Z</time>
      </trkpt>
      <trkpt lat="47.32644" lon="-1.96796">
        <ele>19.36377</ele>
        <time>2009-11-04T10:53:57Z</time>
      </trkpt>
      <trkpt lat="47.3267" lon="-1.96796">
        <ele>19.36377</ele>
        <time>2009-11-04T10:54:03Z</time>
      </trkpt>
      <trkpt lat="47.32699" lon="-1.96795">
        <ele>20.32495</ele>
        <time>2009-11-04T10:54:10Z</time>
      </trkpt>
      <trkpt lat="47.32745" lon="-1.96798">
        <ele>19.36377</ele>
        <time>2009-11-04T10:54:20Z</time>
      </trkpt>
      <trkpt lat="47.32783" lon="-1.968">
        <ele>18.88306</ele>
        <time>2009-11-04T10:54:28Z</time>
      </trkpt>
      <trkpt lat="47.32797" lon="-1.96801">
        <ele>19.36377</ele>
        <time>2009-11-04T10:54:31Z</time>
      </trkpt>
      <trkpt lat="47.32835" lon="-1.96805">
        <ele>19.36377</ele>
        <time>2009-11-04T10:54:39Z</time>
      </trkpt>
      <trkpt lat="47.32881" lon="-1.9681">
        <ele>18.88306</ele>
        <time>2009-11-04T10:54:48Z</time>
      </trkpt>
      <trkpt lat="47.3291" lon="-1.96808">
        <ele>19.36377</ele>
        <time>2009-11-04T10:54:54Z</time>
      </trkpt>
      <trkpt lat="47.32915" lon="-1.96808">
        <ele>19.36377</ele>
        <time>2009-11-04T10:54:55Z</time>
      </trkpt>
      <trkpt lat="47.32948" lon="-1.96799">
        <ele>18.88306</ele>
        <time>2009-11-04T10:55:02Z</time>
      </trkpt>
      <trkpt lat="47.32987" lon="-1.96781">
        <ele>18.40234</ele>
        <time>2009-11-04T10:55:10Z</time>
      </trkpt>
      <trkpt lat="47.33022" lon="-1.96769">
        <ele>16.96045</ele>
        <time>2009-11-04T10:55:17Z</time>
      </trkpt>
      <trkpt lat="47.33027" lon="-1.96768">
        <ele>16.96045</ele>
        <time>2009-11-04T10:55:18Z</time>
      </trkpt>
      <trkpt lat="47.33041" lon="-1.96751">
        <ele>17.44116</ele>
        <time>2009-11-04T10:55:22Z</time>
      </trkpt>
      <trkpt lat="47.33047" lon="-1.9672">
        <ele>16.96045</ele>
        <time>2009-11-04T10:55:26Z</time>
      </trkpt>
      <trkpt lat="47.33049" lon="-1.96684">
        <ele>13.59583</ele>
        <time>2009-11-04T10:55:30Z</time>
      </trkpt>
      <trkpt lat="47.33049" lon="-1.96674">
        <ele>17.92175</ele>
        <time>2009-11-04T10:55:31Z</time>
      </trkpt>
      <trkpt lat="47.3305" lon="-1.96665">
        <ele>15.99902</ele>
        <time>2009-11-04T10:55:32Z</time>
      </trkpt>
      <trkpt lat="47.33062" lon="-1.96598">
        <ele>14.07642</ele>
        <time>2009-11-04T10:55:39Z</time>
      </trkpt>
      <trkpt lat="47.33078" lon="-1.96518">
        <ele>13.11511</ele>
        <time>2009-11-04T10:55:47Z</time>
      </trkpt>
      <trkpt lat="47.33097" lon="-1.96464">
        <ele>12.6344</ele>
        <time>2009-11-04T10:55:53Z</time>
      </trkpt>
      <trkpt lat="47.33112" lon="-1.9641">
        <ele>12.15381</ele>
        <time>2009-11-04T10:55:59Z</time>
      </trkpt>
      <trkpt lat="47.33115" lon="-1.96363">
        <ele>11.67322</ele>
        <time>2009-11-04T10:56:04Z</time>
      </trkpt>
      <trkpt lat="47.33116" lon="-1.96284">
        <ele>10.2312</ele>
        <time>2009-11-04T10:56:12Z</time>
      </trkpt>
      <trkpt lat="47.33116" lon="-1.9622">
        <ele>10.71179</ele>
        <time>2009-11-04T10:56:19Z</time>
      </trkpt>
      <trkpt lat="47.33114" lon="-1.96165">
        <ele>9.269897</ele>
        <time>2009-11-04T10:56:26Z</time>
      </trkpt>
      <trkpt lat="47.3311" lon="-1.96148">
        <ele>9.75061</ele>
        <time>2009-11-04T10:56:30Z</time>
      </trkpt>
      <trkpt lat="47.33105" lon="-1.96119">
        <ele>9.269897</ele>
        <time>2009-11-04T10:56:35Z</time>
      </trkpt>
      <trkpt lat="47.33094" lon="-1.96061">
        <ele>8.789185</ele>
        <time>2009-11-04T10:56:42Z</time>
      </trkpt>
      <trkpt lat="47.3308" lon="-1.95986">
        <ele>8.789185</ele>
        <time>2009-11-04T10:56:50Z</time>
      </trkpt>
      <trkpt lat="47.33066" lon="-1.95906">
        <ele>8.308594</ele>
        <time>2009-11-04T10:56:59Z</time>
      </trkpt>
      <trkpt lat="47.33054" lon="-1.95839">
        <ele>8.308594</ele>
        <time>2009-11-04T10:57:07Z</time>
      </trkpt>
      <trkpt lat="47.3305" lon="-1.95818">
        <ele>8.789185</ele>
        <time>2009-11-04T10:57:10Z</time>
      </trkpt>
      <trkpt lat="47.33053" lon="-1.95795">
        <ele>8.308594</ele>
        <time>2009-11-04T10:57:14Z</time>
      </trkpt>
      <trkpt lat="47.33061" lon="-1.95792">
        <ele>8.308594</ele>
        <time>2009-11-04T10:57:16Z</time>
      </trkpt>
      <trkpt lat="47.33086" lon="-1.95791">
        <ele>7.827881</ele>
        <time>2009-11-04T10:57:21Z</time>
      </trkpt>
      <trkpt lat="47.33097" lon="-1.95778">
        <ele>8.308594</ele>
        <time>2009-11-04T10:57:25Z</time>
      </trkpt>
      <trkpt lat="47.33098" lon="-1.95744">
        <ele>7.827881</ele>
        <time>2009-11-04T10:57:31Z</time>
      </trkpt>
      <trkpt lat="47.33101" lon="-1.95719">
        <ele>8.308594</ele>
        <time>2009-11-04T10:57:35Z</time>
      </trkpt>
      <trkpt lat="47.33105" lon="-1.95688">
        <ele>8.308594</ele>
        <time>2009-11-04T10:57:40Z</time>
      </trkpt>
      <trkpt lat="47.33107" lon="-1.95652">
        <ele>8.308594</ele>
        <time>2009-11-04T10:57:46Z</time>
      </trkpt>
      <trkpt lat="47.33107" lon="-1.95627">
        <ele>7.827881</ele>
        <time>2009-11-04T10:57:51Z</time>
      </trkpt>
      <trkpt lat="47.33116" lon="-1.95608">
        <ele>7.827881</ele>
        <time>2009-11-04T10:57:55Z</time>
      </trkpt>
      <trkpt lat="47.33129" lon="-1.95581">
        <ele>7.347168</ele>
        <time>2009-11-04T10:58:01Z</time>
      </trkpt>
      <trkpt lat="47.33136" lon="-1.95566">
        <ele>7.827881</ele>
        <time>2009-11-04T10:58:04Z</time>
      </trkpt>
      <trkpt lat="47.33143" lon="-1.9554">
        <ele>7.347168</ele>
        <time>2009-11-04T10:58:09Z</time>
      </trkpt>
      <trkpt lat="47.33151" lon="-1.95504">
        <ele>7.347168</ele>
        <time>2009-11-04T10:58:16Z</time>
      </trkpt>
      <trkpt lat="47.33156" lon="-1.95478">
        <ele>7.347168</ele>
        <time>2009-11-04T10:58:21Z</time>
      </trkpt>
      <trkpt lat="47.33155" lon="-1.95431">
        <ele>7.347168</ele>
        <time>2009-11-04T10:58:29Z</time>
      </trkpt>
      <trkpt lat="47.3315" lon="-1.95397">
        <ele>6.866455</ele>
        <time>2009-11-04T10:58:35Z</time>
      </trkpt>
      <trkpt lat="47.33134" lon="-1.9536">
        <ele>7.347168</ele>
        <time>2009-11-04T10:58:43Z</time>
      </trkpt>
      <trkpt lat="47.33132" lon="-1.95351">
        <ele>7.827881</ele>
        <time>2009-11-04T10:58:45Z</time>
      </trkpt>
      <trkpt lat="47.3314" lon="-1.95343">
        <ele>6.866455</ele>
        <time>2009-11-04T10:58:49Z</time>
      </trkpt>
      <trkpt lat="47.33168" lon="-1.95347">
        <ele>6.385864</ele>
        <time>2009-11-04T10:58:56Z</time>
      </trkpt>
      <trkpt lat="47.33199" lon="-1.95351">
        <ele>6.866455</ele>
        <time>2009-11-04T10:59:03Z</time>
      </trkpt>
      <trkpt lat="47.33227" lon="-1.95355">
        <ele>6.385864</ele>
        <time>2009-11-04T10:59:10Z</time>
      </trkpt>
      <trkpt lat="47.33269" lon="-1.9536">
        <ele>6.385864</ele>
        <time>2009-11-04T10:59:20Z</time>
      </trkpt>
      <trkpt lat="47.33297" lon="-1.95363">
        <ele>6.385864</ele>
        <time>2009-11-04T10:59:28Z</time>
      </trkpt>
      <trkpt lat="47.33319" lon="-1.95365">
        <ele>6.385864</ele>
        <time>2009-11-04T10:59:34Z</time>
      </trkpt>
      <trkpt lat="47.33346" lon="-1.95368">
        <ele>6.385864</ele>
        <time>2009-11-04T10:59:41Z</time>
      </trkpt>
      <trkpt lat="47.3338" lon="-1.95371">
        <ele>6.385864</ele>
        <time>2009-11-04T10:59:50Z</time>
      </trkpt>
      <trkpt lat="47.33406" lon="-1.95373">
        <ele>6.385864</ele>
        <time>2009-11-04T10:59:57Z</time>
      </trkpt>
      <trkpt lat="47.33431" lon="-1.95374">
        <ele>6.866455</ele>
        <time>2009-11-04T11:00:04Z</time>
      </trkpt>
      <trkpt lat="47.33456" lon="-1.95375">
        <ele>7.827881</ele>
        <time>2009-11-04T11:00:11Z</time>
      </trkpt>
      <trkpt lat="47.33474" lon="-1.95379">
        <ele>6.866455</ele>
        <time>2009-11-04T11:00:16Z</time>
      </trkpt>
      <trkpt lat="47.33494" lon="-1.9538">
        <ele>7.347168</ele>
        <time>2009-11-04T11:00:21Z</time>
      </trkpt>
      <trkpt lat="47.33507" lon="-1.95381">
        <ele>6.866455</ele>
        <time>2009-11-04T11:00:25Z</time>
      </trkpt>
      <trkpt lat="47.33531" lon="-1.95383">
        <ele>7.347168</ele>
        <time>2009-11-04T11:00:31Z</time>
      </trkpt>
      <trkpt lat="47.33557" lon="-1.95387">
        <ele>8.308594</ele>
        <time>2009-11-04T11:00:38Z</time>
      </trkpt>
      <trkpt lat="47.33567" lon="-1.954">
        <ele>8.308594</ele>
        <time>2009-11-04T11:00:42Z</time>
      </trkpt>
      <trkpt lat="47.33571" lon="-1.95412">
        <ele>8.789185</ele>
        <time>2009-11-04T11:00:45Z</time>
      </trkpt>
      <trkpt lat="47.33578" lon="-1.95417">
        <ele>8.789185</ele>
        <time>2009-11-04T11:00:49Z</time>
      </trkpt>
      <trkpt lat="47.33583" lon="-1.95418">
        <ele>8.789185</ele>
        <time>2009-11-04T11:00:51Z</time>
      </trkpt>
      <trkpt lat="47.33611" lon="-1.95423">
        <ele>8.789185</ele>
        <time>2009-11-04T11:00:59Z</time>
      </trkpt>
      <trkpt lat="47.33631" lon="-1.95424">
        <ele>8.308594</ele>
        <time>2009-11-04T11:01:04Z</time>
      </trkpt>
      <trkpt lat="47.33644" lon="-1.95409">
        <ele>8.789185</ele>
        <time>2009-11-04T11:01:08Z</time>
      </trkpt>
      <trkpt lat="47.3366" lon="-1.95386">
        <ele>9.269897</ele>
        <time>2009-11-04T11:01:13Z</time>
      </trkpt>
      <trkpt lat="47.33661" lon="-1.95372">
        <ele>9.269897</ele>
        <time>2009-11-04T11:01:15Z</time>
      </trkpt>
      <trkpt lat="47.33661" lon="-1.95313">
        <ele>10.2312</ele>
        <time>2009-11-04T11:01:23Z</time>
      </trkpt>
      <trkpt lat="47.33662" lon="-1.95262">
        <ele>9.75061</ele>
        <time>2009-11-04T11:01:30Z</time>
      </trkpt>
      <trkpt lat="47.33659" lon="-1.95227">
        <ele>10.2312</ele>
        <time>2009-11-04T11:01:35Z</time>
      </trkpt>
      <trkpt lat="47.3366" lon="-1.95198">
        <ele>10.71179</ele>
        <time>2009-11-04T11:01:39Z</time>
      </trkpt>
      <trkpt lat="47.3366" lon="-1.95183">
        <ele>10.71179</ele>
        <time>2009-11-04T11:01:41Z</time>
      </trkpt>
      <trkpt lat="47.3366" lon="-1.95119">
        <ele>8.789185</ele>
        <time>2009-11-04T11:01:49Z</time>
      </trkpt>
      <trkpt lat="47.3366" lon="-1.95094">
        <ele>8.308594</ele>
        <time>2009-11-04T11:01:52Z</time>
      </trkpt>
      <trkpt lat="47.33652" lon="-1.95065">
        <ele>7.347168</ele>
        <time>2009-11-04T11:01:56Z</time>
      </trkpt>
      <trkpt lat="47.33638" lon="-1.95034">
        <ele>7.827881</ele>
        <time>2009-11-04T11:02:01Z</time>
      </trkpt>
      <trkpt lat="47.33617" lon="-1.94988">
        <ele>7.347168</ele>
        <time>2009-11-04T11:02:08Z</time>
      </trkpt>
      <trkpt lat="47.33596" lon="-1.9494">
        <ele>7.827881</ele>
        <time>2009-11-04T11:02:15Z</time>
      </trkpt>
      <trkpt lat="47.33573" lon="-1.94889">
        <ele>7.827881</ele>
        <time>2009-11-04T11:02:23Z</time>
      </trkpt>
      <trkpt lat="47.33558" lon="-1.9486">
        <ele>8.308594</ele>
        <time>2009-11-04T11:02:28Z</time>
      </trkpt>
      <trkpt lat="47.33545" lon="-1.94825">
        <ele>7.827881</ele>
        <time>2009-11-04T11:02:33Z</time>
      </trkpt>
      <trkpt lat="47.33543" lon="-1.94818">
        <ele>7.827881</ele>
        <time>2009-11-04T11:02:34Z</time>
      </trkpt>
      <trkpt lat="47.33544" lon="-1.94786">
        <ele>8.308594</ele>
        <time>2009-11-04T11:02:39Z</time>
      </trkpt>
      <trkpt lat="47.3355" lon="-1.94762">
        <ele>8.308594</ele>
        <time>2009-11-04T11:02:43Z</time>
      </trkpt>
      <trkpt lat="47.33562" lon="-1.94717">
        <ele>8.308594</ele>
        <time>2009-11-04T11:02:50Z</time>
      </trkpt>
      <trkpt lat="47.33568" lon="-1.94693">
        <ele>8.308594</ele>
        <time>2009-11-04T11:02:54Z</time>
      </trkpt>
      <trkpt lat="47.33575" lon="-1.9465">
        <ele>8.308594</ele>
        <time>2009-11-04T11:03:00Z</time>
      </trkpt>
      <trkpt lat="47.33583" lon="-1.94597">
        <ele>8.308594</ele>
        <time>2009-11-04T11:03:07Z</time>
      </trkpt>
      <trkpt lat="47.33585" lon="-1.94583">
        <ele>8.308594</ele>
        <time>2009-11-04T11:03:09Z</time>
      </trkpt>
      <trkpt lat="47.33595" lon="-1.9456">
        <ele>7.827881</ele>
        <time>2009-11-04T11:03:13Z</time>
      </trkpt>
      <trkpt lat="47.33621" lon="-1.94526">
        <ele>6.385864</ele>
        <time>2009-11-04T11:03:20Z</time>
      </trkpt>
      <trkpt lat="47.33641" lon="-1.94494">
        <ele>7.827881</ele>
        <time>2009-11-04T11:03:26Z</time>
      </trkpt>
      <trkpt lat="47.33661" lon="-1.94456">
        <ele>7.347168</ele>
        <time>2009-11-04T11:03:32Z</time>
      </trkpt>
      <trkpt lat="47.33679" lon="-1.94418">
        <ele>7.827881</ele>
        <time>2009-11-04T11:03:38Z</time>
      </trkpt>
      <trkpt lat="47.33693" lon="-1.94385">
        <ele>7.347168</ele>
        <time>2009-11-04T11:03:43Z</time>
      </trkpt>
      <trkpt lat="47.337" lon="-1.94367">
        <ele>7.347168</ele>
        <time>2009-11-04T11:03:46Z</time>
      </trkpt>
      <trkpt lat="47.33706" lon="-1.94337">
        <ele>7.827881</ele>
        <time>2009-11-04T11:03:51Z</time>
      </trkpt>
      <trkpt lat="47.33706" lon="-1.94334">
        <ele>7.347168</ele>
        <time>2009-11-04T11:03:53Z</time>
      </trkpt>
      <trkpt lat="47.33715" lon="-1.94339">
        <ele>7.347168</ele>
        <time>2009-11-04T11:03:58Z</time>
      </trkpt>
      <trkpt lat="47.33728" lon="-1.94346">
        <ele>7.347168</ele>
        <time>2009-11-04T11:04:03Z</time>
      </trkpt>
      <trkpt lat="47.33751" lon="-1.94359">
        <ele>7.347168</ele>
        <time>2009-11-04T11:04:09Z</time>
      </trkpt>
      <trkpt lat="47.33778" lon="-1.94371">
        <ele>7.347168</ele>
        <time>2009-11-04T11:04:16Z</time>
      </trkpt>
      <trkpt lat="47.33784" lon="-1.94373">
        <ele>7.827881</ele>
        <time>2009-11-04T11:04:18Z</time>
      </trkpt>
      <trkpt lat="47.33792" lon="-1.94356">
        <ele>7.827881</ele>
        <time>2009-11-04T11:04:22Z</time>
      </trkpt>
      <trkpt lat="47.33806" lon="-1.94297">
        <ele>7.347168</ele>
        <time>2009-11-04T11:04:31Z</time>
      </trkpt>
      <trkpt lat="47.33825" lon="-1.94226">
        <ele>6.866455</ele>
        <time>2009-11-04T11:04:41Z</time>
      </trkpt>
      <trkpt lat="47.33843" lon="-1.94162">
        <ele>7.347168</ele>
        <time>2009-11-04T11:04:50Z</time>
      </trkpt>
      <trkpt lat="47.33859" lon="-1.94101">
        <ele>7.347168</ele>
        <time>2009-11-04T11:04:59Z</time>
      </trkpt>
      <trkpt lat="47.33875" lon="-1.94042">
        <ele>7.347168</ele>
        <time>2009-11-04T11:05:08Z</time>
      </trkpt>
      <trkpt lat="47.3389" lon="-1.93988">
        <ele>7.347168</ele>
        <time>2009-11-04T11:05:16Z</time>
      </trkpt>
      <trkpt lat="47.33911" lon="-1.93908">
        <ele>6.866455</ele>
        <time>2009-11-04T11:05:28Z</time>
      </trkpt>
      <trkpt lat="47.33928" lon="-1.93844">
        <ele>7.347168</ele>
        <time>2009-11-04T11:05:38Z</time>
      </trkpt>
      <trkpt lat="47.33947" lon="-1.93775">
        <ele>6.866455</ele>
        <time>2009-11-04T11:05:48Z</time>
      </trkpt>
      <trkpt lat="47.33964" lon="-1.93709">
        <ele>6.385864</ele>
        <time>2009-11-04T11:05:57Z</time>
      </trkpt>
      <trkpt lat="47.33985" lon="-1.93631">
        <ele>6.866455</ele>
        <time>2009-11-04T11:06:07Z</time>
      </trkpt>
      <trkpt lat="47.33998" lon="-1.93586">
        <ele>6.866455</ele>
        <time>2009-11-04T11:06:13Z</time>
      </trkpt>
      <trkpt lat="47.34008" lon="-1.93581">
        <ele>5.905273</ele>
        <time>2009-11-04T11:06:17Z</time>
      </trkpt>
      <trkpt lat="47.34011" lon="-1.93583">
        <ele>6.385864</ele>
        <time>2009-11-04T11:06:18Z</time>
      </trkpt>
      <trkpt lat="47.34034" lon="-1.93596">
        <ele>6.385864</ele>
        <time>2009-11-04T11:06:24Z</time>
      </trkpt>
      <trkpt lat="47.34059" lon="-1.9361">
        <ele>6.385864</ele>
        <time>2009-11-04T11:06:30Z</time>
      </trkpt>
      <trkpt lat="47.34086" lon="-1.93625">
        <ele>5.905273</ele>
        <time>2009-11-04T11:06:36Z</time>
      </trkpt>
      <trkpt lat="47.34127" lon="-1.93648">
        <ele>6.866455</ele>
        <time>2009-11-04T11:06:45Z</time>
      </trkpt>
      <trkpt lat="47.34136" lon="-1.93652">
        <ele>3.982666</ele>
        <time>2009-11-04T11:06:47Z</time>
      </trkpt>
      <trkpt lat="47.34145" lon="-1.93658">
        <ele>5.905273</ele>
        <time>2009-11-04T11:06:49Z</time>
      </trkpt>
      <trkpt lat="47.34182" lon="-1.93679">
        <ele>6.866455</ele>
        <time>2009-11-04T11:06:57Z</time>
      </trkpt>
      <trkpt lat="47.3422" lon="-1.93699">
        <ele>6.866455</ele>
        <time>2009-11-04T11:07:05Z</time>
      </trkpt>
      <trkpt lat="47.34229" lon="-1.93704">
        <ele>6.385864</ele>
        <time>2009-11-04T11:07:07Z</time>
      </trkpt>
      <trkpt lat="47.34265" lon="-1.93726">
        <ele>6.385864</ele>
        <time>2009-11-04T11:07:15Z</time>
      </trkpt>
      <trkpt lat="47.34294" lon="-1.9374">
        <ele>7.347168</ele>
        <time>2009-11-04T11:07:22Z</time>
      </trkpt>
      <trkpt lat="47.34315" lon="-1.93752">
        <ele>7.347168</ele>
        <time>2009-11-04T11:07:28Z</time>
      </trkpt>
      <trkpt lat="47.34341" lon="-1.93766">
        <ele>7.827881</ele>
        <time>2009-11-04T11:07:35Z</time>
      </trkpt>
      <trkpt lat="47.34372" lon="-1.93783">
        <ele>8.308594</ele>
        <time>2009-11-04T11:07:44Z</time>
      </trkpt>
      <trkpt lat="47.34394" lon="-1.93795">
        <ele>8.789185</ele>
        <time>2009-11-04T11:07:50Z</time>
      </trkpt>
      <trkpt lat="47.34421" lon="-1.93812">
        <ele>10.2312</ele>
        <time>2009-11-04T11:07:58Z</time>
      </trkpt>
      <trkpt lat="47.34443" lon="-1.93824">
        <ele>12.15381</ele>
        <time>2009-11-04T11:08:04Z</time>
      </trkpt>
      <trkpt lat="47.34456" lon="-1.93829">
        <ele>14.55701</ele>
        <time>2009-11-04T11:08:09Z</time>
      </trkpt>
      <trkpt lat="47.34466" lon="-1.93818">
        <ele>15.99902</ele>
        <time>2009-11-04T11:08:14Z</time>
      </trkpt>
      <trkpt lat="47.34471" lon="-1.93799">
        <ele>15.51843</ele>
        <time>2009-11-04T11:08:19Z</time>
      </trkpt>
      <trkpt lat="47.3448" lon="-1.93754">
        <ele>14.07642</ele>
        <time>2009-11-04T11:08:28Z</time>
      </trkpt>
      <trkpt lat="47.34484" lon="-1.93736">
        <ele>14.07642</ele>
        <time>2009-11-04T11:08:31Z</time>
      </trkpt>
      <trkpt lat="47.34502" lon="-1.9371">
        <ele>14.07642</ele>
        <time>2009-11-04T11:08:37Z</time>
      </trkpt>
      <trkpt lat="47.34518" lon="-1.93704">
        <ele>15.99902</ele>
        <time>2009-11-04T11:08:41Z</time>
      </trkpt>
      <trkpt lat="47.34537" lon="-1.93702">
        <ele>16.96045</ele>
        <time>2009-11-04T11:08:46Z</time>
      </trkpt>
      <trkpt lat="47.34572" lon="-1.93701">
        <ele>19.36377</ele>
        <time>2009-11-04T11:08:55Z</time>
      </trkpt>
      <trkpt lat="47.34604" lon="-1.937">
        <ele>21.76697</ele>
        <time>2009-11-04T11:09:04Z</time>
      </trkpt>
      <trkpt lat="47.34624" lon="-1.93701">
        <ele>23.68958</ele>
        <time>2009-11-04T11:09:10Z</time>
      </trkpt>
      <trkpt lat="47.34634" lon="-1.937">
        <ele>25.13171</ele>
        <time>2009-11-04T11:09:13Z</time>
      </trkpt>
      <trkpt lat="47.34649" lon="-1.93698">
        <ele>25.6123</ele>
        <time>2009-11-04T11:09:19Z</time>
      </trkpt>
      <trkpt lat="47.34653" lon="-1.93699">
        <ele>26.0929</ele>
        <time>2009-11-04T11:09:21Z</time>
      </trkpt>
      <trkpt lat="47.34658" lon="-1.93719">
        <ele>26.0929</ele>
        <time>2009-11-04T11:09:26Z</time>
      </trkpt>
      <trkpt lat="47.34661" lon="-1.93744">
        <ele>26.57361</ele>
        <time>2009-11-04T11:09:31Z</time>
      </trkpt>
      <trkpt lat="47.34669" lon="-1.93776">
        <ele>26.0929</ele>
        <time>2009-11-04T11:09:37Z</time>
      </trkpt>
      <trkpt lat="47.34683" lon="-1.93819">
        <ele>25.6123</ele>
        <time>2009-11-04T11:09:44Z</time>
      </trkpt>
      <trkpt lat="47.34696" lon="-1.93841">
        <ele>25.13171</ele>
        <time>2009-11-04T11:09:48Z</time>
      </trkpt>
      <trkpt lat="47.34701" lon="-1.93843">
        <ele>25.13171</ele>
        <time>2009-11-04T11:09:49Z</time>
      </trkpt>
      <trkpt lat="47.34737" lon="-1.93845">
        <ele>25.6123</ele>
        <time>2009-11-04T11:09:56Z</time>
      </trkpt>
      <trkpt lat="47.34777" lon="-1.93842">
        <ele>27.53491</ele>
        <time>2009-11-04T11:10:04Z</time>
      </trkpt>
      <trkpt lat="47.34782" lon="-1.93841">
        <ele>27.05432</ele>
        <time>2009-11-04T11:10:05Z</time>
      </trkpt>
      <trkpt lat="47.34818" lon="-1.93819">
        <ele>28.0155</ele>
        <time>2009-11-04T11:10:13Z</time>
      </trkpt>
      <trkpt lat="47.34853" lon="-1.93787">
        <ele>27.53491</ele>
        <time>2009-11-04T11:10:21Z</time>
      </trkpt>
      <trkpt lat="47.34869" lon="-1.93777">
        <ele>27.05432</ele>
        <time>2009-11-04T11:10:24Z</time>
      </trkpt>
      <trkpt lat="47.34893" lon="-1.93752">
        <ele>26.0929</ele>
        <time>2009-11-04T11:10:29Z</time>
      </trkpt>
      <trkpt lat="47.34929" lon="-1.93732">
        <ele>25.13171</ele>
        <time>2009-11-04T11:10:36Z</time>
      </trkpt>
      <trkpt lat="47.34965" lon="-1.93713">
        <ele>23.68958</ele>
        <time>2009-11-04T11:10:43Z</time>
      </trkpt>
      <trkpt lat="47.34971" lon="-1.9371">
        <ele>23.20898</ele>
        <time>2009-11-04T11:10:44Z</time>
      </trkpt>
      <trkpt lat="47.34984" lon="-1.93708">
        <ele>22.24756</ele>
        <time>2009-11-04T11:10:46Z</time>
      </trkpt>
      <trkpt lat="47.34998" lon="-1.93709">
        <ele>20.32495</ele>
        <time>2009-11-04T11:10:48Z</time>
      </trkpt>
      <trkpt lat="47.35049" lon="-1.93721">
        <ele>18.40234</ele>
        <time>2009-11-04T11:10:55Z</time>
      </trkpt>
      <trkpt lat="47.35069" lon="-1.93722">
        <ele>16.96045</ele>
        <time>2009-11-04T11:10:58Z</time>
      </trkpt>
      <trkpt lat="47.35086" lon="-1.93707">
        <ele>17.44116</ele>
        <time>2009-11-04T11:11:02Z</time>
      </trkpt>
      <trkpt lat="47.35092" lon="-1.93688">
        <ele>17.92175</ele>
        <time>2009-11-04T11:11:05Z</time>
      </trkpt>
      <trkpt lat="47.35103" lon="-1.93663">
        <ele>16.96045</ele>
        <time>2009-11-04T11:11:09Z</time>
      </trkpt>
      <trkpt lat="47.35108" lon="-1.93627">
        <ele>18.88306</ele>
        <time>2009-11-04T11:11:14Z</time>
      </trkpt>
      <trkpt lat="47.35107" lon="-1.93605">
        <ele>18.40234</ele>
        <time>2009-11-04T11:11:17Z</time>
      </trkpt>
      <trkpt lat="47.35113" lon="-1.93572">
        <ele>16.96045</ele>
        <time>2009-11-04T11:11:22Z</time>
      </trkpt>
      <trkpt lat="47.35123" lon="-1.93554">
        <ele>17.44116</ele>
        <time>2009-11-04T11:11:25Z</time>
      </trkpt>
      <trkpt lat="47.35141" lon="-1.93539">
        <ele>17.44116</ele>
        <time>2009-11-04T11:11:29Z</time>
      </trkpt>
      <trkpt lat="47.35166" lon="-1.93535">
        <ele>17.92175</ele>
        <time>2009-11-04T11:11:34Z</time>
      </trkpt>
      <trkpt lat="47.3518" lon="-1.93529">
        <ele>18.88306</ele>
        <time>2009-11-04T11:11:37Z</time>
      </trkpt>
      <trkpt lat="47.35187" lon="-1.93522">
        <ele>18.88306</ele>
        <time>2009-11-04T11:11:39Z</time>
      </trkpt>
      <trkpt lat="47.35192" lon="-1.93515">
        <ele>18.88306</ele>
        <time>2009-11-04T11:11:41Z</time>
      </trkpt>
      <trkpt lat="47.35217" lon="-1.93496">
        <ele>19.36377</ele>
        <time>2009-11-04T11:11:48Z</time>
      </trkpt>
      <trkpt lat="47.3523" lon="-1.93489">
        <ele>20.80566</ele>
        <time>2009-11-04T11:11:53Z</time>
      </trkpt>
      <trkpt lat="47.35245" lon="-1.93494">
        <ele>20.80566</ele>
        <time>2009-11-04T11:11:58Z</time>
      </trkpt>
      <trkpt lat="47.35258" lon="-1.93516">
        <ele>21.28638</ele>
        <time>2009-11-04T11:12:03Z</time>
      </trkpt>
      <trkpt lat="47.35276" lon="-1.93548">
        <ele>21.76697</ele>
        <time>2009-11-04T11:12:10Z</time>
      </trkpt>
      <trkpt lat="47.35293" lon="-1.93576">
        <ele>23.20898</ele>
        <time>2009-11-04T11:12:17Z</time>
      </trkpt>
      <trkpt lat="47.35317" lon="-1.93615">
        <ele>24.651</ele>
        <time>2009-11-04T11:12:27Z</time>
      </trkpt>
      <trkpt lat="47.35331" lon="-1.93632">
        <ele>25.13171</ele>
        <time>2009-11-04T11:12:33Z</time>
      </trkpt>
      <trkpt lat="47.35342" lon="-1.93626">
        <ele>25.6123</ele>
        <time>2009-11-04T11:12:37Z</time>
      </trkpt>
      <trkpt lat="47.35364" lon="-1.93598">
        <ele>26.0929</ele>
        <time>2009-11-04T11:12:45Z</time>
      </trkpt>
      <trkpt lat="47.35384" lon="-1.93576">
        <ele>27.05432</ele>
        <time>2009-11-04T11:12:52Z</time>
      </trkpt>
      <trkpt lat="47.354" lon="-1.93558">
        <ele>28.49622</ele>
        <time>2009-11-04T11:12:58Z</time>
      </trkpt>
      <trkpt lat="47.35412" lon="-1.93542">
        <ele>28.49622</ele>
        <time>2009-11-04T11:13:03Z</time>
      </trkpt>
      <trkpt lat="47.35424" lon="-1.93529">
        <ele>30.41882</ele>
        <time>2009-11-04T11:13:08Z</time>
      </trkpt>
      <trkpt lat="47.35437" lon="-1.93515">
        <ele>31.38013</ele>
        <time>2009-11-04T11:13:13Z</time>
      </trkpt>
      <trkpt lat="47.35455" lon="-1.93499">
        <ele>32.82227</ele>
        <time>2009-11-04T11:13:19Z</time>
      </trkpt>
      <trkpt lat="47.35476" lon="-1.93476">
        <ele>35.70605</ele>
        <time>2009-11-04T11:13:27Z</time>
      </trkpt>
      <trkpt lat="47.35489" lon="-1.9346">
        <ele>36.18677</ele>
        <time>2009-11-04T11:13:33Z</time>
      </trkpt>
      <trkpt lat="47.35499" lon="-1.93451">
        <ele>36.66748</ele>
        <time>2009-11-04T11:13:37Z</time>
      </trkpt>
      <trkpt lat="47.35511" lon="-1.93445">
        <ele>37.14807</ele>
        <time>2009-11-04T11:13:41Z</time>
      </trkpt>
      <trkpt lat="47.35523" lon="-1.93448">
        <ele>37.62866</ele>
        <time>2009-11-04T11:13:45Z</time>
      </trkpt>
      <trkpt lat="47.35539" lon="-1.93463">
        <ele>38.59009</ele>
        <time>2009-11-04T11:13:51Z</time>
      </trkpt>
      <trkpt lat="47.35552" lon="-1.93474">
        <ele>40.51282</ele>
        <time>2009-11-04T11:13:57Z</time>
      </trkpt>
      <trkpt lat="47.35564" lon="-1.93481">
        <ele>41.95471</ele>
        <time>2009-11-04T11:14:02Z</time>
      </trkpt>
      <trkpt lat="47.35573" lon="-1.93481">
        <ele>42.43542</ele>
        <time>2009-11-04T11:14:07Z</time>
      </trkpt>
      <trkpt lat="47.35585" lon="-1.9348">
        <ele>42.91602</ele>
        <time>2009-11-04T11:14:12Z</time>
      </trkpt>
      <trkpt lat="47.35601" lon="-1.93474">
        <ele>43.87732</ele>
        <time>2009-11-04T11:14:18Z</time>
      </trkpt>
      <trkpt lat="47.35615" lon="-1.93464">
        <ele>45.31921</ele>
        <time>2009-11-04T11:14:23Z</time>
      </trkpt>
      <trkpt lat="47.35623" lon="-1.93456">
        <ele>45.31921</ele>
        <time>2009-11-04T11:14:27Z</time>
      </trkpt>
      <trkpt lat="47.35639" lon="-1.93444">
        <ele>45.31921</ele>
        <time>2009-11-04T11:14:33Z</time>
      </trkpt>
      <trkpt lat="47.35658" lon="-1.93423">
        <ele>45.31921</ele>
        <time>2009-11-04T11:14:39Z</time>
      </trkpt>
      <trkpt lat="47.35675" lon="-1.93399">
        <ele>46.28064</ele>
        <time>2009-11-04T11:14:46Z</time>
      </trkpt>
      <trkpt lat="47.35683" lon="-1.93391">
        <ele>47.72253</ele>
        <time>2009-11-04T11:14:49Z</time>
      </trkpt>
      <trkpt lat="47.357" lon="-1.93375">
        <ele>49.64526</ele>
        <time>2009-11-04T11:14:55Z</time>
      </trkpt>
      <trkpt lat="47.3572" lon="-1.93363">
        <ele>50.60657</ele>
        <time>2009-11-04T11:15:02Z</time>
      </trkpt>
      <trkpt lat="47.35736" lon="-1.93357">
        <ele>52.04858</ele>
        <time>2009-11-04T11:15:09Z</time>
      </trkpt>
      <trkpt lat="47.35748" lon="-1.9336">
        <ele>53.97119</ele>
        <time>2009-11-04T11:15:15Z</time>
      </trkpt>
      <trkpt lat="47.35752" lon="-1.93372">
        <ele>54.45178</ele>
        <time>2009-11-04T11:15:19Z</time>
      </trkpt>
      <trkpt lat="47.35755" lon="-1.93387">
        <ele>55.41309</ele>
        <time>2009-11-04T11:15:23Z</time>
      </trkpt>
      <trkpt lat="47.35765" lon="-1.93387">
        <ele>54.93237</ele>
        <time>2009-11-04T11:15:28Z</time>
      </trkpt>
      <trkpt lat="47.35775" lon="-1.93381">
        <ele>54.45178</ele>
        <time>2009-11-04T11:15:31Z</time>
      </trkpt>
      <trkpt lat="47.35804" lon="-1.93365">
        <ele>53.00977</ele>
        <time>2009-11-04T11:15:38Z</time>
      </trkpt>
      <trkpt lat="47.35809" lon="-1.93362">
        <ele>53.49048</ele>
        <time>2009-11-04T11:15:39Z</time>
      </trkpt>
      <trkpt lat="47.35837" lon="-1.93349">
        <ele>52.52917</ele>
        <time>2009-11-04T11:15:45Z</time>
      </trkpt>
      <trkpt lat="47.35851" lon="-1.93342">
        <ele>52.04858</ele>
        <time>2009-11-04T11:15:48Z</time>
      </trkpt>
      <trkpt lat="47.35874" lon="-1.93334">
        <ele>51.08716</ele>
        <time>2009-11-04T11:15:53Z</time>
      </trkpt>
      <trkpt lat="47.35903" lon="-1.93322">
        <ele>51.08716</ele>
        <time>2009-11-04T11:15:59Z</time>
      </trkpt>
      <trkpt lat="47.35926" lon="-1.9331">
        <ele>52.52917</ele>
        <time>2009-11-04T11:16:05Z</time>
      </trkpt>
      <trkpt lat="47.35929" lon="-1.9331">
        <ele>52.04858</ele>
        <time>2009-11-04T11:16:06Z</time>
      </trkpt>
      <trkpt lat="47.35938" lon="-1.93324">
        <ele>51.56787</ele>
        <time>2009-11-04T11:16:10Z</time>
      </trkpt>
      <trkpt lat="47.3595" lon="-1.93365">
        <ele>53.00977</ele>
        <time>2009-11-04T11:16:17Z</time>
      </trkpt>
      <trkpt lat="47.35963" lon="-1.93407">
        <ele>54.45178</ele>
        <time>2009-11-04T11:16:24Z</time>
      </trkpt>
      <trkpt lat="47.3598" lon="-1.93463">
        <ele>55.8938</ele>
        <time>2009-11-04T11:16:33Z</time>
      </trkpt>
      <trkpt lat="47.35992" lon="-1.93513">
        <ele>57.81653</ele>
        <time>2009-11-04T11:16:41Z</time>
      </trkpt>
      <trkpt lat="47.35996" lon="-1.93543">
        <ele>57.81653</ele>
        <time>2009-11-04T11:16:46Z</time>
      </trkpt>
      <trkpt lat="47.35999" lon="-1.93596">
        <ele>58.77771</ele>
        <time>2009-11-04T11:16:55Z</time>
      </trkpt>
      <trkpt lat="47.36002" lon="-1.93645">
        <ele>59.73914</ele>
        <time>2009-11-04T11:17:03Z</time>
      </trkpt>
      <trkpt lat="47.36008" lon="-1.93703">
        <ele>60.70032</ele>
        <time>2009-11-04T11:17:12Z</time>
      </trkpt>
      <trkpt lat="47.36018" lon="-1.93753">
        <ele>62.14233</ele>
        <time>2009-11-04T11:17:20Z</time>
      </trkpt>
      <trkpt lat="47.36025" lon="-1.93789">
        <ele>62.62292</ele>
        <time>2009-11-04T11:17:27Z</time>
      </trkpt>
      <trkpt lat="47.36032" lon="-1.9381">
        <ele>63.58435</ele>
        <time>2009-11-04T11:17:32Z</time>
      </trkpt>
      <trkpt lat="47.36031" lon="-1.9383">
        <ele>64.06506</ele>
        <time>2009-11-04T11:17:36Z</time>
      </trkpt>
      <trkpt lat="47.36031" lon="-1.9387">
        <ele>64.06506</ele>
        <time>2009-11-04T11:17:43Z</time>
      </trkpt>
      <trkpt lat="47.36024" lon="-1.93901">
        <ele>66.46826</ele>
        <time>2009-11-04T11:17:49Z</time>
      </trkpt>
      <trkpt lat="47.36021" lon="-1.93904">
        <ele>66.46826</ele>
        <time>2009-11-04T11:17:50Z</time>
      </trkpt>
      <trkpt lat="47.36012" lon="-1.93914">
        <ele>66.46826</ele>
        <time>2009-11-04T11:17:53Z</time>
      </trkpt>
      <trkpt lat="47.35995" lon="-1.93928">
        <ele>65.98767</ele>
        <time>2009-11-04T11:17:58Z</time>
      </trkpt>
      <trkpt lat="47.35986" lon="-1.93937">
        <ele>66.46826</ele>
        <time>2009-11-04T11:18:02Z</time>
      </trkpt>
      <trkpt lat="47.35986" lon="-1.93938">
        <ele>66.46826</ele>
        <time>2009-11-04T11:18:13Z</time>
      </trkpt>
      <trkpt lat="47.35986" lon="-1.93937">
        <ele>65.98767</ele>
        <time>2009-11-04T11:18:17Z</time>
      </trkpt>
    </trkseg>
  </trk>
</gpx>